<?xml version="1.0" encoding="UTF-8" standalone="no" ?>
<gpx xmlns="http://www.topografix.com/GPX/1/1" xmlns:xsi="http://www.w3.org/2001/XMLSchema-instance" xsi:schemaLocation="http://www.topografix.com/GPX/1/1 http://www.topografix.com/GPX/1/1/gpx.xsd" version="1.1" creator="VisuGPX - https://www.visugpx.com">
  <metadata>
    <name>MOTO CORSICA</name>
  </metadata>
  <wpt lat="45.87977" lon="4.59604">
    <ele>292.6</ele>
    <name><![CDATA[Argon]]></name>
  </wpt>
  <wpt lat="41.62056" lon="9.29931">
    <ele>40.02</ele>
    <name><![CDATA[Camping Porto Vecchio]]></name>
  </wpt>
  <wpt lat="43.29702" lon="3.51216">
    <ele>-1.08</ele>
    <name><![CDATA[Cassiopee]]></name>
  </wpt>
  <wpt lat="41.62054" lon="9.29927">
    <ele>24.88</ele>
    <name><![CDATA[Dernière position]]></name>
  </wpt>
  <wpt lat="25.06178" lon="121.64027">
    <ele>38.1</ele>
    <name><![CDATA[Garmin Asia]]></name>
  </wpt>
  <wpt lat="50.9017" lon="-1.48935">
    <ele>35.93</ele>
    <name><![CDATA[Garmin Europe]]></name>
  </wpt>
  <wpt lat="38.85555" lon="-94.79902">
    <ele>325.05</ele>
    <name><![CDATA[Garmin USA]]></name>
  </wpt>
  <wpt lat="45.53375" lon="4.6308">
    <ele>238.77</ele>
    <name><![CDATA[Zezette]]></name>
  </wpt>
  <trk>
    <name><![CDATA[Enregistremen: 04 JUIN 2014 14:56]]></name>
    <trkseg>
      <trkpt lat="41.6205" lon="9.29909">
        <ele>95.79</ele>
        <time>2014-06-04T12:56:36Z</time>
      </trkpt>
      <trkpt lat="41.62038" lon="9.29905">
        <ele>91.94</ele>
        <time>2014-06-04T12:56:46Z</time>
      </trkpt>
      <trkpt lat="41.62033" lon="9.29921">
        <ele>82.33</ele>
        <time>2014-06-04T12:56:55Z</time>
      </trkpt>
      <trkpt lat="41.62039" lon="9.29931">
        <ele>76.08</ele>
        <time>2014-06-04T12:57:07Z</time>
      </trkpt>
      <trkpt lat="41.62031" lon="9.29921">
        <ele>72.24</ele>
        <time>2014-06-04T12:57:12Z</time>
      </trkpt>
      <trkpt lat="41.62036" lon="9.29875">
        <ele>68.39</ele>
        <time>2014-06-04T12:57:23Z</time>
      </trkpt>
      <trkpt lat="41.62042" lon="9.29868">
        <ele>65.03</ele>
        <time>2014-06-04T12:57:25Z</time>
      </trkpt>
      <trkpt lat="41.62049" lon="9.29864">
        <ele>62.14</ele>
        <time>2014-06-04T12:57:26Z</time>
      </trkpt>
      <trkpt lat="41.62058" lon="9.29861">
        <ele>54.93</ele>
        <time>2014-06-04T12:57:27Z</time>
      </trkpt>
      <trkpt lat="41.62069" lon="9.29861">
        <ele>48.68</ele>
        <time>2014-06-04T12:57:28Z</time>
      </trkpt>
      <trkpt lat="41.6208" lon="9.29863">
        <ele>47.24</ele>
        <time>2014-06-04T12:57:29Z</time>
      </trkpt>
      <trkpt lat="41.62092" lon="9.29869">
        <ele>46.28</ele>
        <time>2014-06-04T12:57:30Z</time>
      </trkpt>
      <trkpt lat="41.62105" lon="9.29874">
        <ele>44.84</ele>
        <time>2014-06-04T12:57:31Z</time>
      </trkpt>
      <trkpt lat="41.62176" lon="9.29917">
        <ele>39.07</ele>
        <time>2014-06-04T12:57:38Z</time>
      </trkpt>
      <trkpt lat="41.62259" lon="9.29976">
        <ele>31.38</ele>
        <time>2014-06-04T12:57:46Z</time>
      </trkpt>
      <trkpt lat="41.62343" lon="9.3003">
        <ele>27.05</ele>
        <time>2014-06-04T12:57:53Z</time>
      </trkpt>
      <trkpt lat="41.62367" lon="9.3004">
        <ele>26.57</ele>
        <time>2014-06-04T12:57:55Z</time>
      </trkpt>
      <trkpt lat="41.62378" lon="9.30041">
        <ele>27.05</ele>
        <time>2014-06-04T12:57:56Z</time>
      </trkpt>
      <trkpt lat="41.62432" lon="9.3003">
        <ele>21.77</ele>
        <time>2014-06-04T12:58:01Z</time>
      </trkpt>
      <trkpt lat="41.6244" lon="9.30025">
        <ele>20.81</ele>
        <time>2014-06-04T12:58:02Z</time>
      </trkpt>
      <trkpt lat="41.62446" lon="9.30019">
        <ele>20.81</ele>
        <time>2014-06-04T12:58:03Z</time>
      </trkpt>
      <trkpt lat="41.6245" lon="9.30013">
        <ele>20.81</ele>
        <time>2014-06-04T12:58:04Z</time>
      </trkpt>
      <trkpt lat="41.62453" lon="9.30008">
        <ele>21.77</ele>
        <time>2014-06-04T12:58:05Z</time>
      </trkpt>
      <trkpt lat="41.6246" lon="9.30002">
        <ele>20.81</ele>
        <time>2014-06-04T12:58:07Z</time>
      </trkpt>
      <trkpt lat="41.62465" lon="9.29999">
        <ele>21.77</ele>
        <time>2014-06-04T12:58:08Z</time>
      </trkpt>
      <trkpt lat="41.62469" lon="9.29993">
        <ele>21.77</ele>
        <time>2014-06-04T12:58:09Z</time>
      </trkpt>
      <trkpt lat="41.62472" lon="9.29986">
        <ele>21.77</ele>
        <time>2014-06-04T12:58:10Z</time>
      </trkpt>
      <trkpt lat="41.62471" lon="9.29977">
        <ele>22.25</ele>
        <time>2014-06-04T12:58:11Z</time>
      </trkpt>
      <trkpt lat="41.62468" lon="9.29967">
        <ele>22.25</ele>
        <time>2014-06-04T12:58:12Z</time>
      </trkpt>
      <trkpt lat="41.62465" lon="9.29955">
        <ele>22.25</ele>
        <time>2014-06-04T12:58:13Z</time>
      </trkpt>
      <trkpt lat="41.62464" lon="9.29928">
        <ele>22.25</ele>
        <time>2014-06-04T12:58:15Z</time>
      </trkpt>
      <trkpt lat="41.62464" lon="9.29914">
        <ele>22.25</ele>
        <time>2014-06-04T12:58:16Z</time>
      </trkpt>
      <trkpt lat="41.62456" lon="9.29784">
        <ele>25.13</ele>
        <time>2014-06-04T12:58:23Z</time>
      </trkpt>
      <trkpt lat="41.6242" lon="9.29606">
        <ele>36.67</ele>
        <time>2014-06-04T12:58:31Z</time>
      </trkpt>
      <trkpt lat="41.62415" lon="9.29592">
        <ele>37.15</ele>
        <time>2014-06-04T12:58:32Z</time>
      </trkpt>
      <trkpt lat="41.62407" lon="9.2958">
        <ele>38.11</ele>
        <time>2014-06-04T12:58:33Z</time>
      </trkpt>
      <trkpt lat="41.62397" lon="9.2957">
        <ele>39.07</ele>
        <time>2014-06-04T12:58:34Z</time>
      </trkpt>
      <trkpt lat="41.62385" lon="9.29561">
        <ele>39.55</ele>
        <time>2014-06-04T12:58:35Z</time>
      </trkpt>
      <trkpt lat="41.62372" lon="9.29554">
        <ele>40.51</ele>
        <time>2014-06-04T12:58:36Z</time>
      </trkpt>
      <trkpt lat="41.62358" lon="9.29544">
        <ele>40.99</ele>
        <time>2014-06-04T12:58:37Z</time>
      </trkpt>
      <trkpt lat="41.62344" lon="9.29533">
        <ele>41.47</ele>
        <time>2014-06-04T12:58:38Z</time>
      </trkpt>
      <trkpt lat="41.62331" lon="9.29521">
        <ele>42.44</ele>
        <time>2014-06-04T12:58:39Z</time>
      </trkpt>
      <trkpt lat="41.62318" lon="9.29506">
        <ele>43.88</ele>
        <time>2014-06-04T12:58:40Z</time>
      </trkpt>
      <trkpt lat="41.62307" lon="9.29491">
        <ele>45.32</ele>
        <time>2014-06-04T12:58:41Z</time>
      </trkpt>
      <trkpt lat="41.62296" lon="9.29473">
        <ele>48.2</ele>
        <time>2014-06-04T12:58:42Z</time>
      </trkpt>
      <trkpt lat="41.62287" lon="9.29453">
        <ele>50.61</ele>
        <time>2014-06-04T12:58:43Z</time>
      </trkpt>
      <trkpt lat="41.62279" lon="9.29434">
        <ele>51.57</ele>
        <time>2014-06-04T12:58:44Z</time>
      </trkpt>
      <trkpt lat="41.62274" lon="9.29413">
        <ele>52.53</ele>
        <time>2014-06-04T12:58:45Z</time>
      </trkpt>
      <trkpt lat="41.62271" lon="9.29392">
        <ele>54.45</ele>
        <time>2014-06-04T12:58:46Z</time>
      </trkpt>
      <trkpt lat="41.6227" lon="9.29368">
        <ele>55.41</ele>
        <time>2014-06-04T12:58:47Z</time>
      </trkpt>
      <trkpt lat="41.6227" lon="9.29345">
        <ele>56.86</ele>
        <time>2014-06-04T12:58:48Z</time>
      </trkpt>
      <trkpt lat="41.62272" lon="9.29321">
        <ele>57.82</ele>
        <time>2014-06-04T12:58:49Z</time>
      </trkpt>
      <trkpt lat="41.62276" lon="9.29297">
        <ele>59.26</ele>
        <time>2014-06-04T12:58:50Z</time>
      </trkpt>
      <trkpt lat="41.62283" lon="9.29273">
        <ele>60.7</ele>
        <time>2014-06-04T12:58:51Z</time>
      </trkpt>
      <trkpt lat="41.62291" lon="9.29248">
        <ele>61.66</ele>
        <time>2014-06-04T12:58:52Z</time>
      </trkpt>
      <trkpt lat="41.62358" lon="9.29051">
        <ele>66.95</ele>
        <time>2014-06-04T12:59:01Z</time>
      </trkpt>
      <trkpt lat="41.62403" lon="9.28959">
        <ele>65.51</ele>
        <time>2014-06-04T12:59:08Z</time>
      </trkpt>
      <trkpt lat="41.62416" lon="9.28939">
        <ele>65.99</ele>
        <time>2014-06-04T12:59:11Z</time>
      </trkpt>
      <trkpt lat="41.62418" lon="9.28932">
        <ele>65.99</ele>
        <time>2014-06-04T12:59:12Z</time>
      </trkpt>
      <trkpt lat="41.62418" lon="9.28925">
        <ele>66.47</ele>
        <time>2014-06-04T12:59:13Z</time>
      </trkpt>
      <trkpt lat="41.62415" lon="9.2892">
        <ele>66.47</ele>
        <time>2014-06-04T12:59:14Z</time>
      </trkpt>
      <trkpt lat="41.62409" lon="9.28916">
        <ele>65.99</ele>
        <time>2014-06-04T12:59:15Z</time>
      </trkpt>
      <trkpt lat="41.62402" lon="9.28911">
        <ele>65.51</ele>
        <time>2014-06-04T12:59:16Z</time>
      </trkpt>
      <trkpt lat="41.62384" lon="9.28894">
        <ele>64.55</ele>
        <time>2014-06-04T12:59:18Z</time>
      </trkpt>
      <trkpt lat="41.62302" lon="9.28797">
        <ele>62.14</ele>
        <time>2014-06-04T12:59:26Z</time>
      </trkpt>
      <trkpt lat="41.62295" lon="9.2878">
        <ele>61.66</ele>
        <time>2014-06-04T12:59:27Z</time>
      </trkpt>
      <trkpt lat="41.6229" lon="9.28762">
        <ele>61.66</ele>
        <time>2014-06-04T12:59:28Z</time>
      </trkpt>
      <trkpt lat="41.62288" lon="9.28742">
        <ele>60.7</ele>
        <time>2014-06-04T12:59:29Z</time>
      </trkpt>
      <trkpt lat="41.62288" lon="9.28723">
        <ele>59.74</ele>
        <time>2014-06-04T12:59:30Z</time>
      </trkpt>
      <trkpt lat="41.6229" lon="9.28704">
        <ele>59.26</ele>
        <time>2014-06-04T12:59:31Z</time>
      </trkpt>
      <trkpt lat="41.62294" lon="9.28684">
        <ele>59.26</ele>
        <time>2014-06-04T12:59:32Z</time>
      </trkpt>
      <trkpt lat="41.623" lon="9.28665">
        <ele>59.26</ele>
        <time>2014-06-04T12:59:33Z</time>
      </trkpt>
      <trkpt lat="41.62319" lon="9.28592">
        <ele>55.89</ele>
        <time>2014-06-04T12:59:37Z</time>
      </trkpt>
      <trkpt lat="41.62321" lon="9.28574">
        <ele>54.93</ele>
        <time>2014-06-04T12:59:38Z</time>
      </trkpt>
      <trkpt lat="41.6232" lon="9.28557">
        <ele>54.45</ele>
        <time>2014-06-04T12:59:39Z</time>
      </trkpt>
      <trkpt lat="41.62318" lon="9.28541">
        <ele>51.09</ele>
        <time>2014-06-04T12:59:40Z</time>
      </trkpt>
      <trkpt lat="41.62312" lon="9.28526">
        <ele>50.13</ele>
        <time>2014-06-04T12:59:41Z</time>
      </trkpt>
      <trkpt lat="41.62305" lon="9.28512">
        <ele>49.16</ele>
        <time>2014-06-04T12:59:42Z</time>
      </trkpt>
      <trkpt lat="41.62296" lon="9.28499">
        <ele>47.72</ele>
        <time>2014-06-04T12:59:43Z</time>
      </trkpt>
      <trkpt lat="41.62285" lon="9.28489">
        <ele>47.72</ele>
        <time>2014-06-04T12:59:44Z</time>
      </trkpt>
      <trkpt lat="41.62274" lon="9.28479">
        <ele>46.76</ele>
        <time>2014-06-04T12:59:45Z</time>
      </trkpt>
      <trkpt lat="41.62262" lon="9.28471">
        <ele>46.28</ele>
        <time>2014-06-04T12:59:46Z</time>
      </trkpt>
      <trkpt lat="41.62111" lon="9.28376">
        <ele>38.59</ele>
        <time>2014-06-04T12:59:57Z</time>
      </trkpt>
      <trkpt lat="41.61953" lon="9.28277">
        <ele>32.82</ele>
        <time>2014-06-04T13:00:09Z</time>
      </trkpt>
      <trkpt lat="41.61791" lon="9.28175">
        <ele>28.98</ele>
        <time>2014-06-04T13:00:21Z</time>
      </trkpt>
      <trkpt lat="41.61625" lon="9.28068">
        <ele>27.53</ele>
        <time>2014-06-04T13:00:33Z</time>
      </trkpt>
      <trkpt lat="41.6153" lon="9.28013">
        <ele>28.02</ele>
        <time>2014-06-04T13:00:41Z</time>
      </trkpt>
      <trkpt lat="41.6141" lon="9.2798">
        <ele>26.09</ele>
        <time>2014-06-04T13:00:51Z</time>
      </trkpt>
      <trkpt lat="41.61266" lon="9.27943">
        <ele>20.32</ele>
        <time>2014-06-04T13:01:03Z</time>
      </trkpt>
      <trkpt lat="41.61108" lon="9.27898">
        <ele>12.15</ele>
        <time>2014-06-04T13:01:16Z</time>
      </trkpt>
      <trkpt lat="41.6099" lon="9.27863">
        <ele>10.71</ele>
        <time>2014-06-04T13:01:26Z</time>
      </trkpt>
      <trkpt lat="41.60827" lon="9.27816">
        <ele>11.19</ele>
        <time>2014-06-04T13:01:38Z</time>
      </trkpt>
      <trkpt lat="41.60665" lon="9.27772">
        <ele>8.79</ele>
        <time>2014-06-04T13:01:51Z</time>
      </trkpt>
      <trkpt lat="41.606" lon="9.27743">
        <ele>7.35</ele>
        <time>2014-06-04T13:01:58Z</time>
      </trkpt>
      <trkpt lat="41.60596" lon="9.2774">
        <ele>7.35</ele>
        <time>2014-06-04T13:01:59Z</time>
      </trkpt>
      <trkpt lat="41.60594" lon="9.27737">
        <ele>6.87</ele>
        <time>2014-06-04T13:02:00Z</time>
      </trkpt>
      <trkpt lat="41.60592" lon="9.27735">
        <ele>5.91</ele>
        <time>2014-06-04T13:02:01Z</time>
      </trkpt>
      <trkpt lat="41.6059" lon="9.27733">
        <ele>6.39</ele>
        <time>2014-06-04T13:02:02Z</time>
      </trkpt>
      <trkpt lat="41.60589" lon="9.27729">
        <ele>5.42</ele>
        <time>2014-06-04T13:02:03Z</time>
      </trkpt>
      <trkpt lat="41.60588" lon="9.27724">
        <ele>5.42</ele>
        <time>2014-06-04T13:02:04Z</time>
      </trkpt>
      <trkpt lat="41.60585" lon="9.27715">
        <ele>5.42</ele>
        <time>2014-06-04T13:02:05Z</time>
      </trkpt>
      <trkpt lat="41.60576" lon="9.27697">
        <ele>4.94</ele>
        <time>2014-06-04T13:02:07Z</time>
      </trkpt>
      <trkpt lat="41.6056" lon="9.27663">
        <ele>3.98</ele>
        <time>2014-06-04T13:02:10Z</time>
      </trkpt>
      <trkpt lat="41.60555" lon="9.27649">
        <ele>3.5</ele>
        <time>2014-06-04T13:02:11Z</time>
      </trkpt>
      <trkpt lat="41.60548" lon="9.27634">
        <ele>3.98</ele>
        <time>2014-06-04T13:02:12Z</time>
      </trkpt>
      <trkpt lat="41.60469" lon="9.27482">
        <ele>6.87</ele>
        <time>2014-06-04T13:02:21Z</time>
      </trkpt>
      <trkpt lat="41.60418" lon="9.27273">
        <ele>10.71</ele>
        <time>2014-06-04T13:02:30Z</time>
      </trkpt>
      <trkpt lat="41.60343" lon="9.27077">
        <ele>12.63</ele>
        <time>2014-06-04T13:02:39Z</time>
      </trkpt>
      <trkpt lat="41.60254" lon="9.26952">
        <ele>13.12</ele>
        <time>2014-06-04T13:02:47Z</time>
      </trkpt>
      <trkpt lat="41.60229" lon="9.26924">
        <ele>14.08</ele>
        <time>2014-06-04T13:02:50Z</time>
      </trkpt>
      <trkpt lat="41.60223" lon="9.26914">
        <ele>14.08</ele>
        <time>2014-06-04T13:02:51Z</time>
      </trkpt>
      <trkpt lat="41.60218" lon="9.26904">
        <ele>14.56</ele>
        <time>2014-06-04T13:02:52Z</time>
      </trkpt>
      <trkpt lat="41.60203" lon="9.26878">
        <ele>13.6</ele>
        <time>2014-06-04T13:02:55Z</time>
      </trkpt>
      <trkpt lat="41.60194" lon="9.26874">
        <ele>13.6</ele>
        <time>2014-06-04T13:02:56Z</time>
      </trkpt>
      <trkpt lat="41.60184" lon="9.26872">
        <ele>13.12</ele>
        <time>2014-06-04T13:02:57Z</time>
      </trkpt>
      <trkpt lat="41.60161" lon="9.26864">
        <ele>14.08</ele>
        <time>2014-06-04T13:02:59Z</time>
      </trkpt>
      <trkpt lat="41.60149" lon="9.26857">
        <ele>14.08</ele>
        <time>2014-06-04T13:03:00Z</time>
      </trkpt>
      <trkpt lat="41.60003" lon="9.26785">
        <ele>15.04</ele>
        <time>2014-06-04T13:03:10Z</time>
      </trkpt>
      <trkpt lat="41.59864" lon="9.26727">
        <ele>15.52</ele>
        <time>2014-06-04T13:03:19Z</time>
      </trkpt>
      <trkpt lat="41.59848" lon="9.26717">
        <ele>15.52</ele>
        <time>2014-06-04T13:03:21Z</time>
      </trkpt>
      <trkpt lat="41.59842" lon="9.2671">
        <ele>14.56</ele>
        <time>2014-06-04T13:03:22Z</time>
      </trkpt>
      <trkpt lat="41.59837" lon="9.26702">
        <ele>15.04</ele>
        <time>2014-06-04T13:03:23Z</time>
      </trkpt>
      <trkpt lat="41.59833" lon="9.26692">
        <ele>14.56</ele>
        <time>2014-06-04T13:03:24Z</time>
      </trkpt>
      <trkpt lat="41.59828" lon="9.26684">
        <ele>13.6</ele>
        <time>2014-06-04T13:03:25Z</time>
      </trkpt>
      <trkpt lat="41.59822" lon="9.26677">
        <ele>13.12</ele>
        <time>2014-06-04T13:03:26Z</time>
      </trkpt>
      <trkpt lat="41.59816" lon="9.26674">
        <ele>13.12</ele>
        <time>2014-06-04T13:03:27Z</time>
      </trkpt>
      <trkpt lat="41.59809" lon="9.26675">
        <ele>12.15</ele>
        <time>2014-06-04T13:03:28Z</time>
      </trkpt>
      <trkpt lat="41.598" lon="9.26679">
        <ele>13.12</ele>
        <time>2014-06-04T13:03:29Z</time>
      </trkpt>
      <trkpt lat="41.59791" lon="9.26682">
        <ele>12.63</ele>
        <time>2014-06-04T13:03:30Z</time>
      </trkpt>
      <trkpt lat="41.59768" lon="9.26682">
        <ele>13.12</ele>
        <time>2014-06-04T13:03:32Z</time>
      </trkpt>
      <trkpt lat="41.59755" lon="9.26679">
        <ele>13.12</ele>
        <time>2014-06-04T13:03:33Z</time>
      </trkpt>
      <trkpt lat="41.59615" lon="9.26624">
        <ele>18.88</ele>
        <time>2014-06-04T13:03:43Z</time>
      </trkpt>
      <trkpt lat="41.59452" lon="9.26545">
        <ele>26.09</ele>
        <time>2014-06-04T13:03:54Z</time>
      </trkpt>
      <trkpt lat="41.59321" lon="9.26476">
        <ele>32.82</ele>
        <time>2014-06-04T13:04:05Z</time>
      </trkpt>
      <trkpt lat="41.59277" lon="9.2645">
        <ele>35.23</ele>
        <time>2014-06-04T13:04:12Z</time>
      </trkpt>
      <trkpt lat="41.59271" lon="9.26443">
        <ele>36.19</ele>
        <time>2014-06-04T13:04:13Z</time>
      </trkpt>
      <trkpt lat="41.59267" lon="9.26436">
        <ele>34.74</ele>
        <time>2014-06-04T13:04:14Z</time>
      </trkpt>
      <trkpt lat="41.59252" lon="9.26416">
        <ele>34.26</ele>
        <time>2014-06-04T13:04:17Z</time>
      </trkpt>
      <trkpt lat="41.59245" lon="9.26414">
        <ele>34.26</ele>
        <time>2014-06-04T13:04:18Z</time>
      </trkpt>
      <trkpt lat="41.59238" lon="9.26415">
        <ele>33.3</ele>
        <time>2014-06-04T13:04:19Z</time>
      </trkpt>
      <trkpt lat="41.59211" lon="9.26411">
        <ele>34.74</ele>
        <time>2014-06-04T13:04:22Z</time>
      </trkpt>
      <trkpt lat="41.59201" lon="9.26406">
        <ele>34.74</ele>
        <time>2014-06-04T13:04:23Z</time>
      </trkpt>
      <trkpt lat="41.59088" lon="9.26346">
        <ele>33.78</ele>
        <time>2014-06-04T13:04:32Z</time>
      </trkpt>
      <trkpt lat="41.58931" lon="9.26276">
        <ele>30.42</ele>
        <time>2014-06-04T13:04:42Z</time>
      </trkpt>
      <trkpt lat="41.5876" lon="9.26258">
        <ele>29.94</ele>
        <time>2014-06-04T13:04:52Z</time>
      </trkpt>
      <trkpt lat="41.58598" lon="9.26303">
        <ele>25.13</ele>
        <time>2014-06-04T13:05:02Z</time>
      </trkpt>
      <trkpt lat="41.58447" lon="9.26408">
        <ele>21.77</ele>
        <time>2014-06-04T13:05:12Z</time>
      </trkpt>
      <trkpt lat="41.58354" lon="9.26515">
        <ele>20.32</ele>
        <time>2014-06-04T13:05:21Z</time>
      </trkpt>
      <trkpt lat="41.5832" lon="9.26569">
        <ele>18.88</ele>
        <time>2014-06-04T13:05:28Z</time>
      </trkpt>
      <trkpt lat="41.58317" lon="9.26574">
        <ele>18.4</ele>
        <time>2014-06-04T13:05:29Z</time>
      </trkpt>
      <trkpt lat="41.58311" lon="9.26578">
        <ele>17.92</ele>
        <time>2014-06-04T13:05:30Z</time>
      </trkpt>
      <trkpt lat="41.58291" lon="9.2659">
        <ele>17.92</ele>
        <time>2014-06-04T13:05:33Z</time>
      </trkpt>
      <trkpt lat="41.58287" lon="9.26598">
        <ele>17.92</ele>
        <time>2014-06-04T13:05:34Z</time>
      </trkpt>
      <trkpt lat="41.58285" lon="9.26608">
        <ele>17.92</ele>
        <time>2014-06-04T13:05:35Z</time>
      </trkpt>
      <trkpt lat="41.5827" lon="9.26659">
        <ele>16.96</ele>
        <time>2014-06-04T13:05:39Z</time>
      </trkpt>
      <trkpt lat="41.58199" lon="9.2681">
        <ele>14.08</ele>
        <time>2014-06-04T13:05:49Z</time>
      </trkpt>
      <trkpt lat="41.58137" lon="9.26958">
        <ele>10.71</ele>
        <time>2014-06-04T13:05:58Z</time>
      </trkpt>
      <trkpt lat="41.58057" lon="9.27138">
        <ele>4.46</ele>
        <time>2014-06-04T13:06:09Z</time>
      </trkpt>
      <trkpt lat="41.57961" lon="9.2728">
        <ele>2.06</ele>
        <time>2014-06-04T13:06:18Z</time>
      </trkpt>
      <trkpt lat="41.57856" lon="9.27342">
        <ele>1.58</ele>
        <time>2014-06-04T13:06:25Z</time>
      </trkpt>
      <trkpt lat="41.57783" lon="9.27375">
        <ele>1.1</ele>
        <time>2014-06-04T13:06:31Z</time>
      </trkpt>
      <trkpt lat="41.57774" lon="9.27384">
        <ele>1.1</ele>
        <time>2014-06-04T13:06:32Z</time>
      </trkpt>
      <trkpt lat="41.57765" lon="9.27394">
        <ele>1.1</ele>
        <time>2014-06-04T13:06:33Z</time>
      </trkpt>
      <trkpt lat="41.57758" lon="9.27406">
        <ele>2.06</ele>
        <time>2014-06-04T13:06:34Z</time>
      </trkpt>
      <trkpt lat="41.5775" lon="9.27418">
        <ele>2.06</ele>
        <time>2014-06-04T13:06:35Z</time>
      </trkpt>
      <trkpt lat="41.57735" lon="9.27439">
        <ele>2.06</ele>
        <time>2014-06-04T13:06:37Z</time>
      </trkpt>
      <trkpt lat="41.57727" lon="9.27448">
        <ele>2.06</ele>
        <time>2014-06-04T13:06:38Z</time>
      </trkpt>
      <trkpt lat="41.57717" lon="9.27456">
        <ele>1.58</ele>
        <time>2014-06-04T13:06:39Z</time>
      </trkpt>
      <trkpt lat="41.57706" lon="9.27463">
        <ele>2.06</ele>
        <time>2014-06-04T13:06:40Z</time>
      </trkpt>
      <trkpt lat="41.57695" lon="9.27469">
        <ele>2.06</ele>
        <time>2014-06-04T13:06:41Z</time>
      </trkpt>
      <trkpt lat="41.57683" lon="9.27472">
        <ele>2.06</ele>
        <time>2014-06-04T13:06:42Z</time>
      </trkpt>
      <trkpt lat="41.57671" lon="9.27475">
        <ele>2.06</ele>
        <time>2014-06-04T13:06:43Z</time>
      </trkpt>
      <trkpt lat="41.57659" lon="9.27475">
        <ele>2.54</ele>
        <time>2014-06-04T13:06:44Z</time>
      </trkpt>
      <trkpt lat="41.57646" lon="9.27475">
        <ele>2.54</ele>
        <time>2014-06-04T13:06:45Z</time>
      </trkpt>
      <trkpt lat="41.57632" lon="9.27474">
        <ele>2.54</ele>
        <time>2014-06-04T13:06:46Z</time>
      </trkpt>
      <trkpt lat="41.57511" lon="9.27456">
        <ele>4.46</ele>
        <time>2014-06-04T13:06:53Z</time>
      </trkpt>
      <trkpt lat="41.57284" lon="9.27431">
        <ele>4.46</ele>
        <time>2014-06-04T13:07:05Z</time>
      </trkpt>
      <trkpt lat="41.57213" lon="9.2742">
        <ele>5.42</ele>
        <time>2014-06-04T13:07:11Z</time>
      </trkpt>
      <trkpt lat="41.57209" lon="9.27418">
        <ele>6.39</ele>
        <time>2014-06-04T13:07:12Z</time>
      </trkpt>
      <trkpt lat="41.57206" lon="9.27415">
        <ele>6.39</ele>
        <time>2014-06-04T13:07:13Z</time>
      </trkpt>
      <trkpt lat="41.57203" lon="9.27412">
        <ele>5.91</ele>
        <time>2014-06-04T13:07:14Z</time>
      </trkpt>
      <trkpt lat="41.57201" lon="9.27409">
        <ele>6.39</ele>
        <time>2014-06-04T13:07:15Z</time>
      </trkpt>
      <trkpt lat="41.57199" lon="9.27406">
        <ele>6.39</ele>
        <time>2014-06-04T13:07:16Z</time>
      </trkpt>
      <trkpt lat="41.57192" lon="9.27402">
        <ele>5.42</ele>
        <time>2014-06-04T13:07:18Z</time>
      </trkpt>
      <trkpt lat="41.57188" lon="9.27402">
        <ele>4.94</ele>
        <time>2014-06-04T13:07:19Z</time>
      </trkpt>
      <trkpt lat="41.57184" lon="9.27403">
        <ele>4.46</ele>
        <time>2014-06-04T13:07:20Z</time>
      </trkpt>
      <trkpt lat="41.57181" lon="9.27406">
        <ele>4.46</ele>
        <time>2014-06-04T13:07:21Z</time>
      </trkpt>
      <trkpt lat="41.57178" lon="9.27409">
        <ele>4.94</ele>
        <time>2014-06-04T13:07:22Z</time>
      </trkpt>
      <trkpt lat="41.57175" lon="9.27412">
        <ele>4.94</ele>
        <time>2014-06-04T13:07:23Z</time>
      </trkpt>
      <trkpt lat="41.57165" lon="9.2742">
        <ele>4.94</ele>
        <time>2014-06-04T13:07:25Z</time>
      </trkpt>
      <trkpt lat="41.57158" lon="9.27421">
        <ele>4.94</ele>
        <time>2014-06-04T13:07:26Z</time>
      </trkpt>
      <trkpt lat="41.5715" lon="9.2742">
        <ele>4.94</ele>
        <time>2014-06-04T13:07:27Z</time>
      </trkpt>
      <trkpt lat="41.57078" lon="9.27408">
        <ele>5.42</ele>
        <time>2014-06-04T13:07:34Z</time>
      </trkpt>
      <trkpt lat="41.5695" lon="9.27399">
        <ele>6.39</ele>
        <time>2014-06-04T13:07:44Z</time>
      </trkpt>
      <trkpt lat="41.56855" lon="9.27387">
        <ele>7.35</ele>
        <time>2014-06-04T13:07:53Z</time>
      </trkpt>
      <trkpt lat="41.56803" lon="9.2738">
        <ele>8.31</ele>
        <time>2014-06-04T13:08:01Z</time>
      </trkpt>
      <trkpt lat="41.56735" lon="9.27372">
        <ele>9.27</ele>
        <time>2014-06-04T13:08:08Z</time>
      </trkpt>
      <trkpt lat="41.56563" lon="9.27346">
        <ele>13.12</ele>
        <time>2014-06-04T13:08:18Z</time>
      </trkpt>
      <trkpt lat="41.56383" lon="9.27327">
        <ele>12.63</ele>
        <time>2014-06-04T13:08:27Z</time>
      </trkpt>
      <trkpt lat="41.5615" lon="9.27294">
        <ele>21.77</ele>
        <time>2014-06-04T13:08:37Z</time>
      </trkpt>
      <trkpt lat="41.55903" lon="9.2726">
        <ele>27.05</ele>
        <time>2014-06-04T13:08:48Z</time>
      </trkpt>
      <trkpt lat="41.55679" lon="9.272">
        <ele>20.81</ele>
        <time>2014-06-04T13:08:58Z</time>
      </trkpt>
      <trkpt lat="41.55442" lon="9.27132">
        <ele>20.81</ele>
        <time>2014-06-04T13:09:09Z</time>
      </trkpt>
      <trkpt lat="41.55284" lon="9.27088">
        <ele>21.29</ele>
        <time>2014-06-04T13:09:18Z</time>
      </trkpt>
      <trkpt lat="41.55116" lon="9.27038">
        <ele>21.29</ele>
        <time>2014-06-04T13:09:29Z</time>
      </trkpt>
      <trkpt lat="41.54984" lon="9.27">
        <ele>21.77</ele>
        <time>2014-06-04T13:09:38Z</time>
      </trkpt>
      <trkpt lat="41.54856" lon="9.26964">
        <ele>25.61</ele>
        <time>2014-06-04T13:09:46Z</time>
      </trkpt>
      <trkpt lat="41.54755" lon="9.26933">
        <ele>26.57</ele>
        <time>2014-06-04T13:09:53Z</time>
      </trkpt>
      <trkpt lat="41.54707" lon="9.26915">
        <ele>26.09</ele>
        <time>2014-06-04T13:09:58Z</time>
      </trkpt>
      <trkpt lat="41.54701" lon="9.26909">
        <ele>26.57</ele>
        <time>2014-06-04T13:09:59Z</time>
      </trkpt>
      <trkpt lat="41.54693" lon="9.269">
        <ele>24.17</ele>
        <time>2014-06-04T13:10:01Z</time>
      </trkpt>
      <trkpt lat="41.54687" lon="9.26898">
        <ele>24.17</ele>
        <time>2014-06-04T13:10:02Z</time>
      </trkpt>
      <trkpt lat="41.54679" lon="9.26899">
        <ele>24.17</ele>
        <time>2014-06-04T13:10:03Z</time>
      </trkpt>
      <trkpt lat="41.54657" lon="9.269">
        <ele>24.65</ele>
        <time>2014-06-04T13:10:05Z</time>
      </trkpt>
      <trkpt lat="41.54644" lon="9.26898">
        <ele>25.61</ele>
        <time>2014-06-04T13:10:06Z</time>
      </trkpt>
      <trkpt lat="41.5453" lon="9.26867">
        <ele>28.5</ele>
        <time>2014-06-04T13:10:13Z</time>
      </trkpt>
      <trkpt lat="41.54419" lon="9.26834">
        <ele>29.94</ele>
        <time>2014-06-04T13:10:21Z</time>
      </trkpt>
      <trkpt lat="41.54331" lon="9.26806">
        <ele>26.09</ele>
        <time>2014-06-04T13:10:27Z</time>
      </trkpt>
      <trkpt lat="41.54184" lon="9.26752">
        <ele>21.77</ele>
        <time>2014-06-04T13:10:34Z</time>
      </trkpt>
      <trkpt lat="41.54021" lon="9.26691">
        <ele>20.81</ele>
        <time>2014-06-04T13:10:43Z</time>
      </trkpt>
      <trkpt lat="41.53839" lon="9.26619">
        <ele>19.84</ele>
        <time>2014-06-04T13:10:54Z</time>
      </trkpt>
      <trkpt lat="41.53691" lon="9.26566">
        <ele>14.56</ele>
        <time>2014-06-04T13:11:04Z</time>
      </trkpt>
      <trkpt lat="41.53525" lon="9.26502">
        <ele>9.75</ele>
        <time>2014-06-04T13:11:15Z</time>
      </trkpt>
      <trkpt lat="41.53413" lon="9.2646">
        <ele>8.31</ele>
        <time>2014-06-04T13:11:23Z</time>
      </trkpt>
      <trkpt lat="41.53393" lon="9.26452">
        <ele>7.83</ele>
        <time>2014-06-04T13:11:26Z</time>
      </trkpt>
      <trkpt lat="41.53387" lon="9.26452">
        <ele>8.31</ele>
        <time>2014-06-04T13:11:27Z</time>
      </trkpt>
      <trkpt lat="41.53383" lon="9.26455">
        <ele>7.83</ele>
        <time>2014-06-04T13:11:28Z</time>
      </trkpt>
      <trkpt lat="41.53379" lon="9.26457">
        <ele>9.75</ele>
        <time>2014-06-04T13:11:29Z</time>
      </trkpt>
      <trkpt lat="41.53376" lon="9.26463">
        <ele>10.23</ele>
        <time>2014-06-04T13:11:30Z</time>
      </trkpt>
      <trkpt lat="41.53373" lon="9.2647">
        <ele>11.19</ele>
        <time>2014-06-04T13:11:31Z</time>
      </trkpt>
      <trkpt lat="41.53371" lon="9.26478">
        <ele>11.19</ele>
        <time>2014-06-04T13:11:32Z</time>
      </trkpt>
      <trkpt lat="41.53366" lon="9.26512">
        <ele>11.19</ele>
        <time>2014-06-04T13:11:36Z</time>
      </trkpt>
      <trkpt lat="41.53366" lon="9.26522">
        <ele>10.71</ele>
        <time>2014-06-04T13:11:37Z</time>
      </trkpt>
      <trkpt lat="41.53368" lon="9.26531">
        <ele>10.23</ele>
        <time>2014-06-04T13:11:38Z</time>
      </trkpt>
      <trkpt lat="41.53372" lon="9.2654">
        <ele>9.75</ele>
        <time>2014-06-04T13:11:39Z</time>
      </trkpt>
      <trkpt lat="41.53375" lon="9.26549">
        <ele>8.79</ele>
        <time>2014-06-04T13:11:40Z</time>
      </trkpt>
      <trkpt lat="41.53386" lon="9.26587">
        <ele>7.83</ele>
        <time>2014-06-04T13:11:44Z</time>
      </trkpt>
      <trkpt lat="41.53387" lon="9.26598">
        <ele>7.83</ele>
        <time>2014-06-04T13:11:45Z</time>
      </trkpt>
      <trkpt lat="41.53386" lon="9.2661">
        <ele>8.79</ele>
        <time>2014-06-04T13:11:46Z</time>
      </trkpt>
      <trkpt lat="41.53385" lon="9.26649">
        <ele>10.71</ele>
        <time>2014-06-04T13:11:49Z</time>
      </trkpt>
      <trkpt lat="41.53386" lon="9.26667">
        <ele>10.71</ele>
        <time>2014-06-04T13:11:50Z</time>
      </trkpt>
      <trkpt lat="41.53388" lon="9.26685">
        <ele>11.19</ele>
        <time>2014-06-04T13:11:51Z</time>
      </trkpt>
      <trkpt lat="41.53398" lon="9.26796">
        <ele>16.48</ele>
        <time>2014-06-04T13:11:59Z</time>
      </trkpt>
      <trkpt lat="41.534" lon="9.26835">
        <ele>16.96</ele>
        <time>2014-06-04T13:12:02Z</time>
      </trkpt>
      <trkpt lat="41.53398" lon="9.26848">
        <ele>16.48</ele>
        <time>2014-06-04T13:12:03Z</time>
      </trkpt>
      <trkpt lat="41.53394" lon="9.26882">
        <ele>16.48</ele>
        <time>2014-06-04T13:12:06Z</time>
      </trkpt>
      <trkpt lat="41.53395" lon="9.26892">
        <ele>16</ele>
        <time>2014-06-04T13:12:07Z</time>
      </trkpt>
      <trkpt lat="41.53398" lon="9.26903">
        <ele>16</ele>
        <time>2014-06-04T13:12:08Z</time>
      </trkpt>
      <trkpt lat="41.53403" lon="9.26911">
        <ele>15.04</ele>
        <time>2014-06-04T13:12:09Z</time>
      </trkpt>
      <trkpt lat="41.53406" lon="9.26918">
        <ele>15.04</ele>
        <time>2014-06-04T13:12:10Z</time>
      </trkpt>
      <trkpt lat="41.5341" lon="9.26926">
        <ele>15.52</ele>
        <time>2014-06-04T13:12:11Z</time>
      </trkpt>
      <trkpt lat="41.53412" lon="9.26933">
        <ele>15.52</ele>
        <time>2014-06-04T13:12:12Z</time>
      </trkpt>
      <trkpt lat="41.53414" lon="9.26938">
        <ele>15.04</ele>
        <time>2014-06-04T13:12:13Z</time>
      </trkpt>
      <trkpt lat="41.53414" lon="9.26987">
        <ele>10.71</ele>
        <time>2014-06-04T13:12:20Z</time>
      </trkpt>
      <trkpt lat="41.53408" lon="9.27002">
        <ele>8.79</ele>
        <time>2014-06-04T13:12:22Z</time>
      </trkpt>
      <trkpt lat="41.53404" lon="9.27008">
        <ele>6.87</ele>
        <time>2014-06-04T13:12:23Z</time>
      </trkpt>
      <trkpt lat="41.53398" lon="9.27015">
        <ele>6.87</ele>
        <time>2014-06-04T13:12:24Z</time>
      </trkpt>
      <trkpt lat="41.53393" lon="9.2702">
        <ele>6.39</ele>
        <time>2014-06-04T13:12:25Z</time>
      </trkpt>
      <trkpt lat="41.53389" lon="9.27026">
        <ele>5.42</ele>
        <time>2014-06-04T13:12:26Z</time>
      </trkpt>
      <trkpt lat="41.53319" lon="9.27117">
        <ele>-0.82</ele>
        <time>2014-06-04T13:12:38Z</time>
      </trkpt>
      <trkpt lat="41.53294" lon="9.27159">
        <ele>-1.3</ele>
        <time>2014-06-04T13:12:44Z</time>
      </trkpt>
      <trkpt lat="41.5329" lon="9.27164">
        <ele>-1.3</ele>
        <time>2014-06-04T13:12:45Z</time>
      </trkpt>
      <trkpt lat="41.5327" lon="9.27189">
        <ele>-1.3</ele>
        <time>2014-06-04T13:12:53Z</time>
      </trkpt>
      <trkpt lat="41.5327" lon="9.27193">
        <ele>-1.3</ele>
        <time>2014-06-04T13:12:54Z</time>
      </trkpt>
      <trkpt lat="41.53271" lon="9.27196">
        <ele>-1.3</ele>
        <time>2014-06-04T13:12:55Z</time>
      </trkpt>
      <trkpt lat="41.53273" lon="9.27199">
        <ele>-1.3</ele>
        <time>2014-06-04T13:12:56Z</time>
      </trkpt>
      <trkpt lat="41.53276" lon="9.272">
        <ele>-1.3</ele>
        <time>2014-06-04T13:12:57Z</time>
      </trkpt>
      <trkpt lat="41.53278" lon="9.272">
        <ele>-1.79</ele>
        <time>2014-06-04T13:12:58Z</time>
      </trkpt>
      <trkpt lat="41.53282" lon="9.27198">
        <ele>-1.3</ele>
        <time>2014-06-04T13:12:59Z</time>
      </trkpt>
      <trkpt lat="41.53284" lon="9.27196">
        <ele>-1.3</ele>
        <time>2014-06-04T13:13:00Z</time>
      </trkpt>
      <trkpt lat="41.53286" lon="9.27192">
        <ele>-1.3</ele>
        <time>2014-06-04T13:13:01Z</time>
      </trkpt>
      <trkpt lat="41.53287" lon="9.27188">
        <ele>-1.3</ele>
        <time>2014-06-04T13:13:02Z</time>
      </trkpt>
      <trkpt lat="41.53287" lon="9.27183">
        <ele>-0.82</ele>
        <time>2014-06-04T13:13:03Z</time>
      </trkpt>
      <trkpt lat="41.53287" lon="9.27179">
        <ele>-1.3</ele>
        <time>2014-06-04T13:13:04Z</time>
      </trkpt>
      <trkpt lat="41.53285" lon="9.27176">
        <ele>-1.3</ele>
        <time>2014-06-04T13:13:05Z</time>
      </trkpt>
      <trkpt lat="41.53284" lon="9.27174">
        <ele>-1.3</ele>
        <time>2014-06-04T13:13:06Z</time>
      </trkpt>
      <trkpt lat="41.53281" lon="9.27172">
        <ele>-1.3</ele>
        <time>2014-06-04T13:13:07Z</time>
      </trkpt>
      <trkpt lat="41.53279" lon="9.27172">
        <ele>-1.3</ele>
        <time>2014-06-04T13:13:08Z</time>
      </trkpt>
      <trkpt lat="41.53276" lon="9.27173">
        <ele>-1.79</ele>
        <time>2014-06-04T13:13:09Z</time>
      </trkpt>
      <trkpt lat="41.53275" lon="9.27174">
        <ele>-1.79</ele>
        <time>2014-06-04T13:13:10Z</time>
      </trkpt>
      <trkpt lat="41.53273" lon="9.27175">
        <ele>-1.79</ele>
        <time>2014-06-04T13:13:11Z</time>
      </trkpt>
      <trkpt lat="41.53272" lon="9.27177">
        <ele>-1.79</ele>
        <time>2014-06-04T13:13:12Z</time>
      </trkpt>
      <trkpt lat="41.5327" lon="9.2718">
        <ele>-1.3</ele>
        <time>2014-06-04T13:13:23Z</time>
      </trkpt>
      <trkpt lat="41.5327" lon="9.27184">
        <ele>-1.3</ele>
        <time>2014-06-04T13:13:24Z</time>
      </trkpt>
      <trkpt lat="41.5327" lon="9.27188">
        <ele>-1.3</ele>
        <time>2014-06-04T13:13:25Z</time>
      </trkpt>
      <trkpt lat="41.53272" lon="9.27193">
        <ele>-1.79</ele>
        <time>2014-06-04T13:13:26Z</time>
      </trkpt>
      <trkpt lat="41.53274" lon="9.27196">
        <ele>-1.79</ele>
        <time>2014-06-04T13:13:27Z</time>
      </trkpt>
      <trkpt lat="41.53278" lon="9.27197">
        <ele>-1.3</ele>
        <time>2014-06-04T13:13:28Z</time>
      </trkpt>
      <trkpt lat="41.53282" lon="9.27197">
        <ele>-1.3</ele>
        <time>2014-06-04T13:13:29Z</time>
      </trkpt>
      <trkpt lat="41.53285" lon="9.27194">
        <ele>-1.79</ele>
        <time>2014-06-04T13:13:30Z</time>
      </trkpt>
      <trkpt lat="41.53288" lon="9.2719">
        <ele>-1.3</ele>
        <time>2014-06-04T13:13:31Z</time>
      </trkpt>
      <trkpt lat="41.5329" lon="9.27185">
        <ele>-1.3</ele>
        <time>2014-06-04T13:13:32Z</time>
      </trkpt>
      <trkpt lat="41.53293" lon="9.2718">
        <ele>-0.82</ele>
        <time>2014-06-04T13:13:33Z</time>
      </trkpt>
      <trkpt lat="41.53309" lon="9.27139">
        <ele>-0.34</ele>
        <time>2014-06-04T13:13:38Z</time>
      </trkpt>
      <trkpt lat="41.53363" lon="9.27055">
        <ele>2.06</ele>
        <time>2014-06-04T13:13:50Z</time>
      </trkpt>
      <trkpt lat="41.53364" lon="9.2705">
        <ele>2.54</ele>
        <time>2014-06-04T13:13:51Z</time>
      </trkpt>
      <trkpt lat="41.53364" lon="9.27047">
        <ele>2.54</ele>
        <time>2014-06-04T13:13:52Z</time>
      </trkpt>
      <trkpt lat="41.53363" lon="9.27044">
        <ele>3.02</ele>
        <time>2014-06-04T13:13:53Z</time>
      </trkpt>
      <trkpt lat="41.53361" lon="9.2704">
        <ele>2.06</ele>
        <time>2014-06-04T13:13:54Z</time>
      </trkpt>
      <trkpt lat="41.53359" lon="9.27038">
        <ele>2.06</ele>
        <time>2014-06-04T13:13:55Z</time>
      </trkpt>
      <trkpt lat="41.53356" lon="9.27037">
        <ele>2.06</ele>
        <time>2014-06-04T13:13:56Z</time>
      </trkpt>
      <trkpt lat="41.53353" lon="9.27035">
        <ele>2.06</ele>
        <time>2014-06-04T13:13:57Z</time>
      </trkpt>
      <trkpt lat="41.5335" lon="9.27034">
        <ele>2.06</ele>
        <time>2014-06-04T13:13:58Z</time>
      </trkpt>
      <trkpt lat="41.53347" lon="9.27034">
        <ele>1.58</ele>
        <time>2014-06-04T13:13:59Z</time>
      </trkpt>
      <trkpt lat="41.5334" lon="9.27032">
        <ele>3.02</ele>
        <time>2014-06-04T13:14:10Z</time>
      </trkpt>
      <trkpt lat="41.53334" lon="9.2703">
        <ele>2.54</ele>
        <time>2014-06-04T13:14:16Z</time>
      </trkpt>
      <trkpt lat="41.53321" lon="9.27026">
        <ele>2.06</ele>
        <time>2014-06-04T13:14:21Z</time>
      </trkpt>
      <trkpt lat="41.53319" lon="9.27027">
        <ele>2.06</ele>
        <time>2014-06-04T13:14:22Z</time>
      </trkpt>
      <trkpt lat="41.53317" lon="9.2703">
        <ele>2.06</ele>
        <time>2014-06-04T13:14:23Z</time>
      </trkpt>
      <trkpt lat="41.53317" lon="9.27033">
        <ele>2.06</ele>
        <time>2014-06-04T13:14:24Z</time>
      </trkpt>
      <trkpt lat="41.53322" lon="9.27039">
        <ele>1.58</ele>
        <time>2014-06-04T13:14:28Z</time>
      </trkpt>
      <trkpt lat="41.53328" lon="9.2704">
        <ele>1.1</ele>
        <time>2014-06-04T13:14:31Z</time>
      </trkpt>
      <trkpt lat="41.53339" lon="9.27049">
        <ele>1.58</ele>
        <time>2014-06-04T13:14:39Z</time>
      </trkpt>
      <trkpt lat="41.53343" lon="9.27046">
        <ele>1.58</ele>
        <time>2014-06-04T13:14:50Z</time>
      </trkpt>
      <trkpt lat="41.53345" lon="9.27039">
        <ele>8.31</ele>
        <time>2014-06-04T16:04:35Z</time>
      </trkpt>
      <trkpt lat="41.53345" lon="9.27041">
        <ele>1.1</ele>
        <time>2014-06-04T16:04:59Z</time>
      </trkpt>
      <trkpt lat="41.53362" lon="9.27042">
        <ele>1.58</ele>
        <time>2014-06-04T16:05:10Z</time>
      </trkpt>
      <trkpt lat="41.53363" lon="9.27044">
        <ele>1.58</ele>
        <time>2014-06-04T16:05:12Z</time>
      </trkpt>
      <trkpt lat="41.53374" lon="9.27039">
        <ele>1.1</ele>
        <time>2014-06-04T16:05:15Z</time>
      </trkpt>
      <trkpt lat="41.53411" lon="9.26995">
        <ele>3.98</ele>
        <time>2014-06-04T16:05:21Z</time>
      </trkpt>
      <trkpt lat="41.53421" lon="9.26976">
        <ele>4.46</ele>
        <time>2014-06-04T16:05:23Z</time>
      </trkpt>
      <trkpt lat="41.53424" lon="9.26966">
        <ele>4.94</ele>
        <time>2014-06-04T16:05:24Z</time>
      </trkpt>
      <trkpt lat="41.53426" lon="9.26958">
        <ele>5.42</ele>
        <time>2014-06-04T16:05:25Z</time>
      </trkpt>
      <trkpt lat="41.53426" lon="9.26949">
        <ele>5.42</ele>
        <time>2014-06-04T16:05:26Z</time>
      </trkpt>
      <trkpt lat="41.53424" lon="9.26938">
        <ele>6.39</ele>
        <time>2014-06-04T16:05:27Z</time>
      </trkpt>
      <trkpt lat="41.53421" lon="9.26928">
        <ele>6.39</ele>
        <time>2014-06-04T16:05:28Z</time>
      </trkpt>
      <trkpt lat="41.53416" lon="9.26919">
        <ele>6.87</ele>
        <time>2014-06-04T16:05:29Z</time>
      </trkpt>
      <trkpt lat="41.5341" lon="9.26909">
        <ele>7.35</ele>
        <time>2014-06-04T16:05:30Z</time>
      </trkpt>
      <trkpt lat="41.534" lon="9.2689">
        <ele>7.83</ele>
        <time>2014-06-04T16:05:32Z</time>
      </trkpt>
      <trkpt lat="41.53398" lon="9.2688">
        <ele>7.35</ele>
        <time>2014-06-04T16:05:33Z</time>
      </trkpt>
      <trkpt lat="41.53397" lon="9.2687">
        <ele>7.83</ele>
        <time>2014-06-04T16:05:34Z</time>
      </trkpt>
      <trkpt lat="41.53397" lon="9.26859">
        <ele>8.31</ele>
        <time>2014-06-04T16:05:35Z</time>
      </trkpt>
      <trkpt lat="41.53399" lon="9.26846">
        <ele>8.31</ele>
        <time>2014-06-04T16:05:36Z</time>
      </trkpt>
      <trkpt lat="41.534" lon="9.26833">
        <ele>8.31</ele>
        <time>2014-06-04T16:05:37Z</time>
      </trkpt>
      <trkpt lat="41.53403" lon="9.26794">
        <ele>9.75</ele>
        <time>2014-06-04T16:05:40Z</time>
      </trkpt>
      <trkpt lat="41.53387" lon="9.26648">
        <ele>10.71</ele>
        <time>2014-06-04T16:05:50Z</time>
      </trkpt>
      <trkpt lat="41.53388" lon="9.26633">
        <ele>10.23</ele>
        <time>2014-06-04T16:05:51Z</time>
      </trkpt>
      <trkpt lat="41.53391" lon="9.26588">
        <ele>8.79</ele>
        <time>2014-06-04T16:05:54Z</time>
      </trkpt>
      <trkpt lat="41.53388" lon="9.26575">
        <ele>8.31</ele>
        <time>2014-06-04T16:05:55Z</time>
      </trkpt>
      <trkpt lat="41.53385" lon="9.26564">
        <ele>8.31</ele>
        <time>2014-06-04T16:05:56Z</time>
      </trkpt>
      <trkpt lat="41.53382" lon="9.26553">
        <ele>8.31</ele>
        <time>2014-06-04T16:05:57Z</time>
      </trkpt>
      <trkpt lat="41.53376" lon="9.26542">
        <ele>8.31</ele>
        <time>2014-06-04T16:05:58Z</time>
      </trkpt>
      <trkpt lat="41.53369" lon="9.26518">
        <ele>8.31</ele>
        <time>2014-06-04T16:06:00Z</time>
      </trkpt>
      <trkpt lat="41.53367" lon="9.26507">
        <ele>8.31</ele>
        <time>2014-06-04T16:06:01Z</time>
      </trkpt>
      <trkpt lat="41.53367" lon="9.26497">
        <ele>8.79</ele>
        <time>2014-06-04T16:06:02Z</time>
      </trkpt>
      <trkpt lat="41.53369" lon="9.26487">
        <ele>8.79</ele>
        <time>2014-06-04T16:06:03Z</time>
      </trkpt>
      <trkpt lat="41.5337" lon="9.26481">
        <ele>9.27</ele>
        <time>2014-06-04T16:06:04Z</time>
      </trkpt>
      <trkpt lat="41.53379" lon="9.26459">
        <ele>9.27</ele>
        <time>2014-06-04T16:06:12Z</time>
      </trkpt>
      <trkpt lat="41.53388" lon="9.26451">
        <ele>9.27</ele>
        <time>2014-06-04T16:06:22Z</time>
      </trkpt>
      <trkpt lat="41.53392" lon="9.2645">
        <ele>10.23</ele>
        <time>2014-06-04T16:06:28Z</time>
      </trkpt>
      <trkpt lat="41.53398" lon="9.2645">
        <ele>10.23</ele>
        <time>2014-06-04T16:06:29Z</time>
      </trkpt>
      <trkpt lat="41.53405" lon="9.26451">
        <ele>10.23</ele>
        <time>2014-06-04T16:06:30Z</time>
      </trkpt>
      <trkpt lat="41.53416" lon="9.26454">
        <ele>10.23</ele>
        <time>2014-06-04T16:06:31Z</time>
      </trkpt>
      <trkpt lat="41.53429" lon="9.26459">
        <ele>10.23</ele>
        <time>2014-06-04T16:06:32Z</time>
      </trkpt>
      <trkpt lat="41.53538" lon="9.26504">
        <ele>8.79</ele>
        <time>2014-06-04T16:06:38Z</time>
      </trkpt>
      <trkpt lat="41.53815" lon="9.26608">
        <ele>14.08</ele>
        <time>2014-06-04T16:06:51Z</time>
      </trkpt>
      <trkpt lat="41.54112" lon="9.26724">
        <ele>23.69</ele>
        <time>2014-06-04T16:07:05Z</time>
      </trkpt>
      <trkpt lat="41.54353" lon="9.26813">
        <ele>29.94</ele>
        <time>2014-06-04T16:07:16Z</time>
      </trkpt>
      <trkpt lat="41.54499" lon="9.26856">
        <ele>28.98</ele>
        <time>2014-06-04T16:07:23Z</time>
      </trkpt>
      <trkpt lat="41.54631" lon="9.26895">
        <ele>28.02</ele>
        <time>2014-06-04T16:07:31Z</time>
      </trkpt>
      <trkpt lat="41.54675" lon="9.26904">
        <ele>27.53</ele>
        <time>2014-06-04T16:07:35Z</time>
      </trkpt>
      <trkpt lat="41.54684" lon="9.26908">
        <ele>28.02</ele>
        <time>2014-06-04T16:07:36Z</time>
      </trkpt>
      <trkpt lat="41.54692" lon="9.26913">
        <ele>27.53</ele>
        <time>2014-06-04T16:07:37Z</time>
      </trkpt>
      <trkpt lat="41.54712" lon="9.2692">
        <ele>28.02</ele>
        <time>2014-06-04T16:07:39Z</time>
      </trkpt>
      <trkpt lat="41.54822" lon="9.26949">
        <ele>26.09</ele>
        <time>2014-06-04T16:07:47Z</time>
      </trkpt>
      <trkpt lat="41.55009" lon="9.27005">
        <ele>25.61</ele>
        <time>2014-06-04T16:07:58Z</time>
      </trkpt>
      <trkpt lat="41.55162" lon="9.2705">
        <ele>28.98</ele>
        <time>2014-06-04T16:08:06Z</time>
      </trkpt>
      <trkpt lat="41.55406" lon="9.27119">
        <ele>29.94</ele>
        <time>2014-06-04T16:08:19Z</time>
      </trkpt>
      <trkpt lat="41.55647" lon="9.27191">
        <ele>26.57</ele>
        <time>2014-06-04T16:08:31Z</time>
      </trkpt>
      <trkpt lat="41.55896" lon="9.27258">
        <ele>28.02</ele>
        <time>2014-06-04T16:08:44Z</time>
      </trkpt>
      <trkpt lat="41.56018" lon="9.2728">
        <ele>26.57</ele>
        <time>2014-06-04T16:08:52Z</time>
      </trkpt>
      <trkpt lat="41.56183" lon="9.27297">
        <ele>19.36</ele>
        <time>2014-06-04T16:09:04Z</time>
      </trkpt>
      <trkpt lat="41.56339" lon="9.27319">
        <ele>14.56</ele>
        <time>2014-06-04T16:09:16Z</time>
      </trkpt>
      <trkpt lat="41.56547" lon="9.27345">
        <ele>9.27</ele>
        <time>2014-06-04T16:09:32Z</time>
      </trkpt>
      <trkpt lat="41.56652" lon="9.27361">
        <ele>6.87</ele>
        <time>2014-06-04T16:09:44Z</time>
      </trkpt>
      <trkpt lat="41.56654" lon="9.27362">
        <ele>5.91</ele>
        <time>2014-06-04T16:09:45Z</time>
      </trkpt>
      <trkpt lat="41.56656" lon="9.27365">
        <ele>5.42</ele>
        <time>2014-06-04T16:09:46Z</time>
      </trkpt>
      <trkpt lat="41.56657" lon="9.27366">
        <ele>5.91</ele>
        <time>2014-06-04T16:09:47Z</time>
      </trkpt>
      <trkpt lat="41.56657" lon="9.2737">
        <ele>6.87</ele>
        <time>2014-06-04T16:09:48Z</time>
      </trkpt>
      <trkpt lat="41.5666" lon="9.27374">
        <ele>7.83</ele>
        <time>2014-06-04T16:09:49Z</time>
      </trkpt>
      <trkpt lat="41.56664" lon="9.27376">
        <ele>7.83</ele>
        <time>2014-06-04T16:09:51Z</time>
      </trkpt>
      <trkpt lat="41.56666" lon="9.27376">
        <ele>8.31</ele>
        <time>2014-06-04T16:10:03Z</time>
      </trkpt>
      <trkpt lat="41.56667" lon="9.27382">
        <ele>8.31</ele>
        <time>2014-06-04T16:10:21Z</time>
      </trkpt>
      <trkpt lat="41.56671" lon="9.27379">
        <ele>7.83</ele>
        <time>2014-06-04T16:10:52Z</time>
      </trkpt>
      <trkpt lat="41.56675" lon="9.27379">
        <ele>7.35</ele>
        <time>2014-06-04T16:11:12Z</time>
      </trkpt>
      <trkpt lat="41.56671" lon="9.27393">
        <ele>6.39</ele>
        <time>2014-06-04T16:11:35Z</time>
      </trkpt>
      <trkpt lat="41.56655" lon="9.27403">
        <ele>4.46</ele>
        <time>2014-06-04T16:12:20Z</time>
      </trkpt>
      <trkpt lat="41.56653" lon="9.27408">
        <ele>4.94</ele>
        <time>2014-06-04T16:13:02Z</time>
      </trkpt>
      <trkpt lat="41.56657" lon="9.27404">
        <ele>6.39</ele>
        <time>2014-06-04T16:13:43Z</time>
      </trkpt>
      <trkpt lat="41.56658" lon="9.27401">
        <ele>7.83</ele>
        <time>2014-06-04T16:14:19Z</time>
      </trkpt>
      <trkpt lat="41.5666" lon="9.27407">
        <ele>11.67</ele>
        <time>2014-06-04T16:14:58Z</time>
      </trkpt>
      <trkpt lat="41.56662" lon="9.27397">
        <ele>17.44</ele>
        <time>2014-06-04T16:15:35Z</time>
      </trkpt>
      <trkpt lat="41.56664" lon="9.27395">
        <ele>22.73</ele>
        <time>2014-06-04T16:16:12Z</time>
      </trkpt>
      <trkpt lat="41.56666" lon="9.27404">
        <ele>27.05</ele>
        <time>2014-06-04T16:16:58Z</time>
      </trkpt>
      <trkpt lat="41.56665" lon="9.27405">
        <ele>28.5</ele>
        <time>2014-06-04T16:17:39Z</time>
      </trkpt>
      <trkpt lat="41.56665" lon="9.27406">
        <ele>28.5</ele>
        <time>2014-06-04T16:18:30Z</time>
      </trkpt>
      <trkpt lat="41.56668" lon="9.27414">
        <ele>23.21</ele>
        <time>2014-06-04T16:19:11Z</time>
      </trkpt>
      <trkpt lat="41.56661" lon="9.27419">
        <ele>20.81</ele>
        <time>2014-06-04T16:19:48Z</time>
      </trkpt>
      <trkpt lat="41.56659" lon="9.27408">
        <ele>14.56</ele>
        <time>2014-06-04T16:20:27Z</time>
      </trkpt>
      <trkpt lat="41.56661" lon="9.27397">
        <ele>8.79</ele>
        <time>2014-06-04T16:21:02Z</time>
      </trkpt>
      <trkpt lat="41.56667" lon="9.27395">
        <ele>10.71</ele>
        <time>2014-06-04T16:21:30Z</time>
      </trkpt>
      <trkpt lat="41.56667" lon="9.27393">
        <ele>8.79</ele>
        <time>2014-06-04T16:22:13Z</time>
      </trkpt>
      <trkpt lat="41.56667" lon="9.27393">
        <ele>9.27</ele>
        <time>2014-06-04T16:23:01Z</time>
      </trkpt>
      <trkpt lat="41.5667" lon="9.27384">
        <ele>8.79</ele>
        <time>2014-06-04T16:23:39Z</time>
      </trkpt>
      <trkpt lat="41.5666" lon="9.27375">
        <ele>9.75</ele>
        <time>2014-06-04T16:24:04Z</time>
      </trkpt>
      <trkpt lat="41.56674" lon="9.2737">
        <ele>7.83</ele>
        <time>2014-06-04T16:24:40Z</time>
      </trkpt>
      <trkpt lat="41.56668" lon="9.27371">
        <ele>8.31</ele>
        <time>2014-06-04T16:25:13Z</time>
      </trkpt>
      <trkpt lat="41.56667" lon="9.27373">
        <ele>9.27</ele>
        <time>2014-06-04T16:25:47Z</time>
      </trkpt>
      <trkpt lat="41.5667" lon="9.27371">
        <ele>9.27</ele>
        <time>2014-06-04T16:26:13Z</time>
      </trkpt>
      <trkpt lat="41.56686" lon="9.27372">
        <ele>6.87</ele>
        <time>2014-06-04T16:26:17Z</time>
      </trkpt>
      <trkpt lat="41.56687" lon="9.2737">
        <ele>5.91</ele>
        <time>2014-06-04T16:26:18Z</time>
      </trkpt>
      <trkpt lat="41.56695" lon="9.27359">
        <ele>4.94</ele>
        <time>2014-06-04T16:26:25Z</time>
      </trkpt>
      <trkpt lat="41.56702" lon="9.2736">
        <ele>3.02</ele>
        <time>2014-06-04T16:26:26Z</time>
      </trkpt>
      <trkpt lat="41.56777" lon="9.27371">
        <ele>1.1</ele>
        <time>2014-06-04T16:26:32Z</time>
      </trkpt>
      <trkpt lat="41.56959" lon="9.27395">
        <ele>-0.34</ele>
        <time>2014-06-04T16:26:45Z</time>
      </trkpt>
      <trkpt lat="41.571" lon="9.27412">
        <ele>0.62</ele>
        <time>2014-06-04T16:26:55Z</time>
      </trkpt>
      <trkpt lat="41.57175" lon="9.27422">
        <ele>0.62</ele>
        <time>2014-06-04T16:27:02Z</time>
      </trkpt>
      <trkpt lat="41.57181" lon="9.27425">
        <ele>0.62</ele>
        <time>2014-06-04T16:27:03Z</time>
      </trkpt>
      <trkpt lat="41.57203" lon="9.2743">
        <ele>0.62</ele>
        <time>2014-06-04T16:27:06Z</time>
      </trkpt>
      <trkpt lat="41.57212" lon="9.27426">
        <ele>0.14</ele>
        <time>2014-06-04T16:27:07Z</time>
      </trkpt>
      <trkpt lat="41.57233" lon="9.27425">
        <ele>-0.34</ele>
        <time>2014-06-04T16:27:09Z</time>
      </trkpt>
      <trkpt lat="41.57245" lon="9.27425">
        <ele>-0.34</ele>
        <time>2014-06-04T16:27:10Z</time>
      </trkpt>
      <trkpt lat="41.57371" lon="9.27442">
        <ele>0.62</ele>
        <time>2014-06-04T16:27:19Z</time>
      </trkpt>
      <trkpt lat="41.57565" lon="9.27468">
        <ele>2.06</ele>
        <time>2014-06-04T16:27:31Z</time>
      </trkpt>
      <trkpt lat="41.57683" lon="9.27478">
        <ele>1.1</ele>
        <time>2014-06-04T16:27:40Z</time>
      </trkpt>
      <trkpt lat="41.57707" lon="9.27483">
        <ele>1.1</ele>
        <time>2014-06-04T16:27:43Z</time>
      </trkpt>
      <trkpt lat="41.57716" lon="9.2749">
        <ele>1.1</ele>
        <time>2014-06-04T16:27:44Z</time>
      </trkpt>
      <trkpt lat="41.57723" lon="9.27498">
        <ele>1.58</ele>
        <time>2014-06-04T16:27:45Z</time>
      </trkpt>
      <trkpt lat="41.57736" lon="9.2751">
        <ele>1.1</ele>
        <time>2014-06-04T16:27:47Z</time>
      </trkpt>
      <trkpt lat="41.57743" lon="9.27512">
        <ele>0.62</ele>
        <time>2014-06-04T16:27:48Z</time>
      </trkpt>
      <trkpt lat="41.57751" lon="9.2751">
        <ele>0.14</ele>
        <time>2014-06-04T16:27:49Z</time>
      </trkpt>
      <trkpt lat="41.57759" lon="9.27505">
        <ele>0.14</ele>
        <time>2014-06-04T16:27:50Z</time>
      </trkpt>
      <trkpt lat="41.57764" lon="9.27497">
        <ele>-0.34</ele>
        <time>2014-06-04T16:27:51Z</time>
      </trkpt>
      <trkpt lat="41.57768" lon="9.27487">
        <ele>-0.34</ele>
        <time>2014-06-04T16:27:52Z</time>
      </trkpt>
      <trkpt lat="41.5777" lon="9.27477">
        <ele>-0.34</ele>
        <time>2014-06-04T16:27:53Z</time>
      </trkpt>
      <trkpt lat="41.57769" lon="9.27466">
        <ele>-0.82</ele>
        <time>2014-06-04T16:27:54Z</time>
      </trkpt>
      <trkpt lat="41.57766" lon="9.27455">
        <ele>-1.3</ele>
        <time>2014-06-04T16:27:55Z</time>
      </trkpt>
      <trkpt lat="41.57762" lon="9.27443">
        <ele>-0.34</ele>
        <time>2014-06-04T16:27:56Z</time>
      </trkpt>
      <trkpt lat="41.57761" lon="9.27429">
        <ele>-0.34</ele>
        <time>2014-06-04T16:27:57Z</time>
      </trkpt>
      <trkpt lat="41.57762" lon="9.27414">
        <ele>-0.82</ele>
        <time>2014-06-04T16:27:58Z</time>
      </trkpt>
      <trkpt lat="41.57766" lon="9.274">
        <ele>-1.3</ele>
        <time>2014-06-04T16:27:59Z</time>
      </trkpt>
      <trkpt lat="41.57774" lon="9.27386">
        <ele>-1.3</ele>
        <time>2014-06-04T16:28:00Z</time>
      </trkpt>
      <trkpt lat="41.57781" lon="9.27373">
        <ele>-1.79</ele>
        <time>2014-06-04T16:28:01Z</time>
      </trkpt>
      <trkpt lat="41.57792" lon="9.27363">
        <ele>-2.27</ele>
        <time>2014-06-04T16:28:02Z</time>
      </trkpt>
      <trkpt lat="41.57804" lon="9.27354">
        <ele>-1.79</ele>
        <time>2014-06-04T16:28:03Z</time>
      </trkpt>
      <trkpt lat="41.57817" lon="9.27347">
        <ele>-2.27</ele>
        <time>2014-06-04T16:28:04Z</time>
      </trkpt>
      <trkpt lat="41.57831" lon="9.27341">
        <ele>-1.79</ele>
        <time>2014-06-04T16:28:05Z</time>
      </trkpt>
      <trkpt lat="41.57948" lon="9.2728">
        <ele>-4.67</ele>
        <time>2014-06-04T16:28:12Z</time>
      </trkpt>
      <trkpt lat="41.57981" lon="9.27249">
        <ele>-3.71</ele>
        <time>2014-06-04T16:28:14Z</time>
      </trkpt>
      <trkpt lat="41.58086" lon="9.27081">
        <ele>0.14</ele>
        <time>2014-06-04T16:28:22Z</time>
      </trkpt>
      <trkpt lat="41.58172" lon="9.26884">
        <ele>6.39</ele>
        <time>2014-06-04T16:28:32Z</time>
      </trkpt>
      <trkpt lat="41.58279" lon="9.2665">
        <ele>9.27</ele>
        <time>2014-06-04T16:28:46Z</time>
      </trkpt>
      <trkpt lat="41.58295" lon="9.26618">
        <ele>10.23</ele>
        <time>2014-06-04T16:28:49Z</time>
      </trkpt>
      <trkpt lat="41.58302" lon="9.26612">
        <ele>9.27</ele>
        <time>2014-06-04T16:28:50Z</time>
      </trkpt>
      <trkpt lat="41.58323" lon="9.26596">
        <ele>9.27</ele>
        <time>2014-06-04T16:28:53Z</time>
      </trkpt>
      <trkpt lat="41.58326" lon="9.26587">
        <ele>9.27</ele>
        <time>2014-06-04T16:28:54Z</time>
      </trkpt>
      <trkpt lat="41.58328" lon="9.26577">
        <ele>8.79</ele>
        <time>2014-06-04T16:28:55Z</time>
      </trkpt>
      <trkpt lat="41.58341" lon="9.26541">
        <ele>9.27</ele>
        <time>2014-06-04T16:28:58Z</time>
      </trkpt>
      <trkpt lat="41.58348" lon="9.26529">
        <ele>9.75</ele>
        <time>2014-06-04T16:28:59Z</time>
      </trkpt>
      <trkpt lat="41.58431" lon="9.26422">
        <ele>13.12</ele>
        <time>2014-06-04T16:29:07Z</time>
      </trkpt>
      <trkpt lat="41.58555" lon="9.2632">
        <ele>15.52</ele>
        <time>2014-06-04T16:29:16Z</time>
      </trkpt>
      <trkpt lat="41.58687" lon="9.26261">
        <ele>17.44</ele>
        <time>2014-06-04T16:29:24Z</time>
      </trkpt>
      <trkpt lat="41.58851" lon="9.26248">
        <ele>19.36</ele>
        <time>2014-06-04T16:29:33Z</time>
      </trkpt>
      <trkpt lat="41.58995" lon="9.26283">
        <ele>20.81</ele>
        <time>2014-06-04T16:29:42Z</time>
      </trkpt>
      <trkpt lat="41.59119" lon="9.2635">
        <ele>22.73</ele>
        <time>2014-06-04T16:29:51Z</time>
      </trkpt>
      <trkpt lat="41.59213" lon="9.26404">
        <ele>24.17</ele>
        <time>2014-06-04T16:30:02Z</time>
      </trkpt>
      <trkpt lat="41.5923" lon="9.26415">
        <ele>24.17</ele>
        <time>2014-06-04T16:30:08Z</time>
      </trkpt>
      <trkpt lat="41.59233" lon="9.26421">
        <ele>24.17</ele>
        <time>2014-06-04T16:30:09Z</time>
      </trkpt>
      <trkpt lat="41.59236" lon="9.26427">
        <ele>24.17</ele>
        <time>2014-06-04T16:30:10Z</time>
      </trkpt>
      <trkpt lat="41.59239" lon="9.26434">
        <ele>24.65</ele>
        <time>2014-06-04T16:30:11Z</time>
      </trkpt>
      <trkpt lat="41.59244" lon="9.26441">
        <ele>24.65</ele>
        <time>2014-06-04T16:30:12Z</time>
      </trkpt>
      <trkpt lat="41.5925" lon="9.26445">
        <ele>24.65</ele>
        <time>2014-06-04T16:30:13Z</time>
      </trkpt>
      <trkpt lat="41.59256" lon="9.26447">
        <ele>24.65</ele>
        <time>2014-06-04T16:30:14Z</time>
      </trkpt>
      <trkpt lat="41.59264" lon="9.26446">
        <ele>24.17</ele>
        <time>2014-06-04T16:30:15Z</time>
      </trkpt>
      <trkpt lat="41.59281" lon="9.26446">
        <ele>24.17</ele>
        <time>2014-06-04T16:30:17Z</time>
      </trkpt>
      <trkpt lat="41.59293" lon="9.2645">
        <ele>23.69</ele>
        <time>2014-06-04T16:30:18Z</time>
      </trkpt>
      <trkpt lat="41.59306" lon="9.26456">
        <ele>23.21</ele>
        <time>2014-06-04T16:30:19Z</time>
      </trkpt>
      <trkpt lat="41.59453" lon="9.26539">
        <ele>20.81</ele>
        <time>2014-06-04T16:30:29Z</time>
      </trkpt>
      <trkpt lat="41.59631" lon="9.26627">
        <ele>11.67</ele>
        <time>2014-06-04T16:30:40Z</time>
      </trkpt>
      <trkpt lat="41.59784" lon="9.26686">
        <ele>5.91</ele>
        <time>2014-06-04T16:30:52Z</time>
      </trkpt>
      <trkpt lat="41.59791" lon="9.26689">
        <ele>5.91</ele>
        <time>2014-06-04T16:30:53Z</time>
      </trkpt>
      <trkpt lat="41.59798" lon="9.26694">
        <ele>5.91</ele>
        <time>2014-06-04T16:30:54Z</time>
      </trkpt>
      <trkpt lat="41.59836" lon="9.26713">
        <ele>4.94</ele>
        <time>2014-06-04T16:30:58Z</time>
      </trkpt>
      <trkpt lat="41.59849" lon="9.26718">
        <ele>4.94</ele>
        <time>2014-06-04T16:30:59Z</time>
      </trkpt>
      <trkpt lat="41.59863" lon="9.26724">
        <ele>4.94</ele>
        <time>2014-06-04T16:31:00Z</time>
      </trkpt>
      <trkpt lat="41.59989" lon="9.26779">
        <ele>3.02</ele>
        <time>2014-06-04T16:31:07Z</time>
      </trkpt>
      <trkpt lat="41.60116" lon="9.26843">
        <ele>4.46</ele>
        <time>2014-06-04T16:31:15Z</time>
      </trkpt>
      <trkpt lat="41.60167" lon="9.26871">
        <ele>4.46</ele>
        <time>2014-06-04T16:31:20Z</time>
      </trkpt>
      <trkpt lat="41.60174" lon="9.26877">
        <ele>4.46</ele>
        <time>2014-06-04T16:31:21Z</time>
      </trkpt>
      <trkpt lat="41.6018" lon="9.26885">
        <ele>4.46</ele>
        <time>2014-06-04T16:31:22Z</time>
      </trkpt>
      <trkpt lat="41.60186" lon="9.26895">
        <ele>4.94</ele>
        <time>2014-06-04T16:31:23Z</time>
      </trkpt>
      <trkpt lat="41.60191" lon="9.26904">
        <ele>4.94</ele>
        <time>2014-06-04T16:31:24Z</time>
      </trkpt>
      <trkpt lat="41.60199" lon="9.26911">
        <ele>4.46</ele>
        <time>2014-06-04T16:31:25Z</time>
      </trkpt>
      <trkpt lat="41.60208" lon="9.26916">
        <ele>4.94</ele>
        <time>2014-06-04T16:31:26Z</time>
      </trkpt>
      <trkpt lat="41.60219" lon="9.26921">
        <ele>4.46</ele>
        <time>2014-06-04T16:31:27Z</time>
      </trkpt>
      <trkpt lat="41.6023" lon="9.26929">
        <ele>4.46</ele>
        <time>2014-06-04T16:31:28Z</time>
      </trkpt>
      <trkpt lat="41.60242" lon="9.26941">
        <ele>3.98</ele>
        <time>2014-06-04T16:31:29Z</time>
      </trkpt>
      <trkpt lat="41.60255" lon="9.26955">
        <ele>3.98</ele>
        <time>2014-06-04T16:31:30Z</time>
      </trkpt>
      <trkpt lat="41.60354" lon="9.27097">
        <ele>1.1</ele>
        <time>2014-06-04T16:31:38Z</time>
      </trkpt>
      <trkpt lat="41.60421" lon="9.27269">
        <ele>-1.3</ele>
        <time>2014-06-04T16:31:46Z</time>
      </trkpt>
      <trkpt lat="41.60469" lon="9.27479">
        <ele>-1.79</ele>
        <time>2014-06-04T16:31:56Z</time>
      </trkpt>
      <trkpt lat="41.60532" lon="9.27604">
        <ele>-0.82</ele>
        <time>2014-06-04T16:32:04Z</time>
      </trkpt>
      <trkpt lat="41.60546" lon="9.27631">
        <ele>-0.82</ele>
        <time>2014-06-04T16:32:06Z</time>
      </trkpt>
      <trkpt lat="41.6055" lon="9.27643">
        <ele>-0.82</ele>
        <time>2014-06-04T16:32:07Z</time>
      </trkpt>
      <trkpt lat="41.60552" lon="9.27653">
        <ele>-0.34</ele>
        <time>2014-06-04T16:32:08Z</time>
      </trkpt>
      <trkpt lat="41.60555" lon="9.2767">
        <ele>1.58</ele>
        <time>2014-06-04T16:32:14Z</time>
      </trkpt>
      <trkpt lat="41.60545" lon="9.27693">
        <ele>2.06</ele>
        <time>2014-06-04T16:32:23Z</time>
      </trkpt>
      <trkpt lat="41.60537" lon="9.27718">
        <ele>1.58</ele>
        <time>2014-06-04T16:32:26Z</time>
      </trkpt>
      <trkpt lat="41.60538" lon="9.27727">
        <ele>1.1</ele>
        <time>2014-06-04T16:32:27Z</time>
      </trkpt>
      <trkpt lat="41.6054" lon="9.27735">
        <ele>0.62</ele>
        <time>2014-06-04T16:32:28Z</time>
      </trkpt>
      <trkpt lat="41.60545" lon="9.27741">
        <ele>0.62</ele>
        <time>2014-06-04T16:32:29Z</time>
      </trkpt>
      <trkpt lat="41.60551" lon="9.27746">
        <ele>0.14</ele>
        <time>2014-06-04T16:32:30Z</time>
      </trkpt>
      <trkpt lat="41.60557" lon="9.27749">
        <ele>-0.34</ele>
        <time>2014-06-04T16:32:31Z</time>
      </trkpt>
      <trkpt lat="41.60563" lon="9.27749">
        <ele>-0.34</ele>
        <time>2014-06-04T16:32:32Z</time>
      </trkpt>
      <trkpt lat="41.6057" lon="9.27747">
        <ele>-0.34</ele>
        <time>2014-06-04T16:32:33Z</time>
      </trkpt>
      <trkpt lat="41.60576" lon="9.27745">
        <ele>-0.34</ele>
        <time>2014-06-04T16:32:34Z</time>
      </trkpt>
      <trkpt lat="41.60591" lon="9.27743">
        <ele>-0.82</ele>
        <time>2014-06-04T16:32:36Z</time>
      </trkpt>
      <trkpt lat="41.60599" lon="9.27744">
        <ele>-1.3</ele>
        <time>2014-06-04T16:32:37Z</time>
      </trkpt>
      <trkpt lat="41.60608" lon="9.27747">
        <ele>-0.82</ele>
        <time>2014-06-04T16:32:38Z</time>
      </trkpt>
      <trkpt lat="41.60647" lon="9.27768">
        <ele>0.62</ele>
        <time>2014-06-04T16:32:42Z</time>
      </trkpt>
      <trkpt lat="41.60658" lon="9.27771">
        <ele>0.14</ele>
        <time>2014-06-04T16:32:43Z</time>
      </trkpt>
      <trkpt lat="41.60811" lon="9.27812">
        <ele>3.98</ele>
        <time>2014-06-04T16:32:57Z</time>
      </trkpt>
      <trkpt lat="41.60963" lon="9.27853">
        <ele>6.39</ele>
        <time>2014-06-04T16:33:10Z</time>
      </trkpt>
      <trkpt lat="41.61148" lon="9.27903">
        <ele>7.35</ele>
        <time>2014-06-04T16:33:25Z</time>
      </trkpt>
      <trkpt lat="41.61261" lon="9.27933">
        <ele>11.19</ele>
        <time>2014-06-04T16:33:35Z</time>
      </trkpt>
      <trkpt lat="41.61381" lon="9.27966">
        <ele>16.48</ele>
        <time>2014-06-04T16:33:46Z</time>
      </trkpt>
      <trkpt lat="41.61563" lon="9.28022">
        <ele>18.88</ele>
        <time>2014-06-04T16:34:00Z</time>
      </trkpt>
      <trkpt lat="41.61758" lon="9.28147">
        <ele>22.25</ele>
        <time>2014-06-04T16:34:16Z</time>
      </trkpt>
      <trkpt lat="41.61953" lon="9.28272">
        <ele>27.53</ele>
        <time>2014-06-04T16:34:32Z</time>
      </trkpt>
      <trkpt lat="41.62138" lon="9.2839">
        <ele>33.3</ele>
        <time>2014-06-04T16:34:47Z</time>
      </trkpt>
      <trkpt lat="41.62275" lon="9.28479">
        <ele>40.99</ele>
        <time>2014-06-04T16:34:58Z</time>
      </trkpt>
      <trkpt lat="41.62287" lon="9.2849">
        <ele>41.47</ele>
        <time>2014-06-04T16:34:59Z</time>
      </trkpt>
      <trkpt lat="41.62296" lon="9.28502">
        <ele>42.44</ele>
        <time>2014-06-04T16:35:00Z</time>
      </trkpt>
      <trkpt lat="41.62305" lon="9.28516">
        <ele>42.92</ele>
        <time>2014-06-04T16:35:01Z</time>
      </trkpt>
      <trkpt lat="41.62312" lon="9.28532">
        <ele>43.4</ele>
        <time>2014-06-04T16:35:02Z</time>
      </trkpt>
      <trkpt lat="41.62316" lon="9.28549">
        <ele>43.88</ele>
        <time>2014-06-04T16:35:03Z</time>
      </trkpt>
      <trkpt lat="41.62318" lon="9.28566">
        <ele>43.88</ele>
        <time>2014-06-04T16:35:04Z</time>
      </trkpt>
      <trkpt lat="41.62317" lon="9.28584">
        <ele>44.84</ele>
        <time>2014-06-04T16:35:05Z</time>
      </trkpt>
      <trkpt lat="41.62315" lon="9.28602">
        <ele>45.32</ele>
        <time>2014-06-04T16:35:06Z</time>
      </trkpt>
      <trkpt lat="41.6231" lon="9.28618">
        <ele>45.8</ele>
        <time>2014-06-04T16:35:07Z</time>
      </trkpt>
      <trkpt lat="41.62305" lon="9.28636">
        <ele>46.76</ele>
        <time>2014-06-04T16:35:08Z</time>
      </trkpt>
      <trkpt lat="41.62287" lon="9.28722">
        <ele>49.65</ele>
        <time>2014-06-04T16:35:13Z</time>
      </trkpt>
      <trkpt lat="41.62288" lon="9.2874">
        <ele>48.68</ele>
        <time>2014-06-04T16:35:14Z</time>
      </trkpt>
      <trkpt lat="41.6229" lon="9.28757">
        <ele>48.68</ele>
        <time>2014-06-04T16:35:15Z</time>
      </trkpt>
      <trkpt lat="41.62294" lon="9.28773">
        <ele>49.16</ele>
        <time>2014-06-04T16:35:16Z</time>
      </trkpt>
      <trkpt lat="41.623" lon="9.28788">
        <ele>49.16</ele>
        <time>2014-06-04T16:35:17Z</time>
      </trkpt>
      <trkpt lat="41.62307" lon="9.28802">
        <ele>49.65</ele>
        <time>2014-06-04T16:35:18Z</time>
      </trkpt>
      <trkpt lat="41.62316" lon="9.28816">
        <ele>50.13</ele>
        <time>2014-06-04T16:35:19Z</time>
      </trkpt>
      <trkpt lat="41.62326" lon="9.28828">
        <ele>51.09</ele>
        <time>2014-06-04T16:35:20Z</time>
      </trkpt>
      <trkpt lat="41.62336" lon="9.28841">
        <ele>51.57</ele>
        <time>2014-06-04T16:35:21Z</time>
      </trkpt>
      <trkpt lat="41.62394" lon="9.28906">
        <ele>57.82</ele>
        <time>2014-06-04T16:35:28Z</time>
      </trkpt>
      <trkpt lat="41.62399" lon="9.28913">
        <ele>58.78</ele>
        <time>2014-06-04T16:35:29Z</time>
      </trkpt>
      <trkpt lat="41.62402" lon="9.28921">
        <ele>59.26</ele>
        <time>2014-06-04T16:35:30Z</time>
      </trkpt>
      <trkpt lat="41.62404" lon="9.28931">
        <ele>60.22</ele>
        <time>2014-06-04T16:35:31Z</time>
      </trkpt>
      <trkpt lat="41.62404" lon="9.28942">
        <ele>61.18</ele>
        <time>2014-06-04T16:35:32Z</time>
      </trkpt>
      <trkpt lat="41.62403" lon="9.28954">
        <ele>61.18</ele>
        <time>2014-06-04T16:35:33Z</time>
      </trkpt>
      <trkpt lat="41.624" lon="9.28965">
        <ele>61.66</ele>
        <time>2014-06-04T16:35:34Z</time>
      </trkpt>
      <trkpt lat="41.62393" lon="9.28977">
        <ele>62.14</ele>
        <time>2014-06-04T16:35:35Z</time>
      </trkpt>
      <trkpt lat="41.62384" lon="9.2899">
        <ele>62.14</ele>
        <time>2014-06-04T16:35:36Z</time>
      </trkpt>
      <trkpt lat="41.62375" lon="9.29002">
        <ele>62.62</ele>
        <time>2014-06-04T16:35:37Z</time>
      </trkpt>
      <trkpt lat="41.62366" lon="9.29017">
        <ele>63.1</ele>
        <time>2014-06-04T16:35:38Z</time>
      </trkpt>
      <trkpt lat="41.62358" lon="9.29034">
        <ele>64.07</ele>
        <time>2014-06-04T16:35:39Z</time>
      </trkpt>
      <trkpt lat="41.62351" lon="9.29052">
        <ele>64.55</ele>
        <time>2014-06-04T16:35:40Z</time>
      </trkpt>
      <trkpt lat="41.62288" lon="9.29241">
        <ele>57.34</ele>
        <time>2014-06-04T16:35:49Z</time>
      </trkpt>
      <trkpt lat="41.62266" lon="9.29325">
        <ele>53.01</ele>
        <time>2014-06-04T16:35:53Z</time>
      </trkpt>
      <trkpt lat="41.62264" lon="9.29348">
        <ele>52.53</ele>
        <time>2014-06-04T16:35:54Z</time>
      </trkpt>
      <trkpt lat="41.62264" lon="9.2937">
        <ele>52.05</ele>
        <time>2014-06-04T16:35:55Z</time>
      </trkpt>
      <trkpt lat="41.62265" lon="9.29393">
        <ele>51.57</ele>
        <time>2014-06-04T16:35:56Z</time>
      </trkpt>
      <trkpt lat="41.62268" lon="9.29415">
        <ele>50.61</ele>
        <time>2014-06-04T16:35:57Z</time>
      </trkpt>
      <trkpt lat="41.62273" lon="9.29436">
        <ele>49.65</ele>
        <time>2014-06-04T16:35:58Z</time>
      </trkpt>
      <trkpt lat="41.6228" lon="9.29457">
        <ele>48.68</ele>
        <time>2014-06-04T16:35:59Z</time>
      </trkpt>
      <trkpt lat="41.62288" lon="9.29476">
        <ele>47.24</ele>
        <time>2014-06-04T16:36:00Z</time>
      </trkpt>
      <trkpt lat="41.62298" lon="9.29495">
        <ele>45.8</ele>
        <time>2014-06-04T16:36:01Z</time>
      </trkpt>
      <trkpt lat="41.62309" lon="9.29511">
        <ele>43.88</ele>
        <time>2014-06-04T16:36:02Z</time>
      </trkpt>
      <trkpt lat="41.62322" lon="9.29525">
        <ele>40.99</ele>
        <time>2014-06-04T16:36:03Z</time>
      </trkpt>
      <trkpt lat="41.62336" lon="9.29538">
        <ele>38.11</ele>
        <time>2014-06-04T16:36:04Z</time>
      </trkpt>
      <trkpt lat="41.6235" lon="9.29549">
        <ele>38.11</ele>
        <time>2014-06-04T16:36:05Z</time>
      </trkpt>
      <trkpt lat="41.62364" lon="9.29558">
        <ele>37.15</ele>
        <time>2014-06-04T16:36:06Z</time>
      </trkpt>
      <trkpt lat="41.62402" lon="9.29588">
        <ele>35.71</ele>
        <time>2014-06-04T16:36:09Z</time>
      </trkpt>
      <trkpt lat="41.6241" lon="9.29601">
        <ele>34.74</ele>
        <time>2014-06-04T16:36:10Z</time>
      </trkpt>
      <trkpt lat="41.62415" lon="9.29618">
        <ele>33.3</ele>
        <time>2014-06-04T16:36:11Z</time>
      </trkpt>
      <trkpt lat="41.62418" lon="9.29639">
        <ele>30.9</ele>
        <time>2014-06-04T16:36:12Z</time>
      </trkpt>
      <trkpt lat="41.62423" lon="9.29662">
        <ele>29.46</ele>
        <time>2014-06-04T16:36:13Z</time>
      </trkpt>
      <trkpt lat="41.62456" lon="9.29899">
        <ele>19.36</ele>
        <time>2014-06-04T16:36:24Z</time>
      </trkpt>
      <trkpt lat="41.62452" lon="9.29982">
        <ele>16.96</ele>
        <time>2014-06-04T16:36:30Z</time>
      </trkpt>
      <trkpt lat="41.62443" lon="9.30006">
        <ele>16</ele>
        <time>2014-06-04T16:36:33Z</time>
      </trkpt>
      <trkpt lat="41.6244" lon="9.30014">
        <ele>15.52</ele>
        <time>2014-06-04T16:36:34Z</time>
      </trkpt>
      <trkpt lat="41.62435" lon="9.30021">
        <ele>16</ele>
        <time>2014-06-04T16:36:35Z</time>
      </trkpt>
      <trkpt lat="41.6243" lon="9.30026">
        <ele>14.56</ele>
        <time>2014-06-04T16:36:36Z</time>
      </trkpt>
      <trkpt lat="41.62424" lon="9.30029">
        <ele>14.08</ele>
        <time>2014-06-04T16:36:37Z</time>
      </trkpt>
      <trkpt lat="41.62419" lon="9.3003">
        <ele>12.63</ele>
        <time>2014-06-04T16:36:38Z</time>
      </trkpt>
      <trkpt lat="41.62412" lon="9.30031">
        <ele>12.63</ele>
        <time>2014-06-04T16:36:39Z</time>
      </trkpt>
      <trkpt lat="41.62404" lon="9.30032">
        <ele>12.63</ele>
        <time>2014-06-04T16:36:40Z</time>
      </trkpt>
      <trkpt lat="41.62359" lon="9.3003">
        <ele>13.12</ele>
        <time>2014-06-04T16:36:46Z</time>
      </trkpt>
      <trkpt lat="41.62351" lon="9.30026">
        <ele>13.12</ele>
        <time>2014-06-04T16:36:47Z</time>
      </trkpt>
      <trkpt lat="41.62332" lon="9.30015">
        <ele>13.6</ele>
        <time>2014-06-04T16:36:50Z</time>
      </trkpt>
      <trkpt lat="41.62315" lon="9.30004">
        <ele>14.08</ele>
        <time>2014-06-04T16:36:53Z</time>
      </trkpt>
      <trkpt lat="41.62279" lon="9.29977">
        <ele>14.56</ele>
        <time>2014-06-04T16:36:58Z</time>
      </trkpt>
      <trkpt lat="41.62272" lon="9.29972">
        <ele>14.56</ele>
        <time>2014-06-04T16:36:59Z</time>
      </trkpt>
      <trkpt lat="41.62216" lon="9.29938">
        <ele>15.04</ele>
        <time>2014-06-04T16:37:06Z</time>
      </trkpt>
      <trkpt lat="41.62195" lon="9.29927">
        <ele>14.56</ele>
        <time>2014-06-04T16:37:08Z</time>
      </trkpt>
      <trkpt lat="41.62171" lon="9.2991">
        <ele>14.56</ele>
        <time>2014-06-04T16:37:12Z</time>
      </trkpt>
      <trkpt lat="41.62123" lon="9.29882">
        <ele>14.56</ele>
        <time>2014-06-04T16:37:19Z</time>
      </trkpt>
      <trkpt lat="41.6209" lon="9.29863">
        <ele>14.56</ele>
        <time>2014-06-04T16:37:22Z</time>
      </trkpt>
      <trkpt lat="41.6208" lon="9.2986">
        <ele>14.56</ele>
        <time>2014-06-04T16:37:23Z</time>
      </trkpt>
      <trkpt lat="41.62055" lon="9.29856">
        <ele>14.56</ele>
        <time>2014-06-04T16:37:26Z</time>
      </trkpt>
      <trkpt lat="41.62049" lon="9.29856">
        <ele>14.56</ele>
        <time>2014-06-04T16:37:27Z</time>
      </trkpt>
      <trkpt lat="41.62046" lon="9.29852">
        <ele>14.08</ele>
        <time>2014-06-04T16:37:28Z</time>
      </trkpt>
      <trkpt lat="41.62043" lon="9.29854">
        <ele>13.6</ele>
        <time>2014-06-04T16:37:29Z</time>
      </trkpt>
      <trkpt lat="41.62041" lon="9.29858">
        <ele>14.08</ele>
        <time>2014-06-04T16:37:30Z</time>
      </trkpt>
      <trkpt lat="41.6204" lon="9.29861">
        <ele>14.08</ele>
        <time>2014-06-04T16:37:31Z</time>
      </trkpt>
      <trkpt lat="41.62038" lon="9.29891">
        <ele>13.6</ele>
        <time>2014-06-04T16:37:37Z</time>
      </trkpt>
      <trkpt lat="41.62053" lon="9.29924">
        <ele>11.19</ele>
        <time>2014-06-04T16:37:49Z</time>
      </trkpt>
      <trkpt lat="41.62061" lon="9.29927">
        <ele>11.67</ele>
        <time>2014-06-04T16:37:57Z</time>
      </trkpt>
      <trkpt lat="41.62067" lon="9.29931">
        <ele>12.63</ele>
        <time>2014-06-04T16:38:08Z</time>
      </trkpt>
      <trkpt lat="41.62068" lon="9.29931">
        <ele>13.6</ele>
        <time>2014-06-04T16:38:32Z</time>
      </trkpt>
    </trkseg>
  </trk>
  <rte>
    <name><![CDATA[412o2]]></name>
      <rtept lat="43.29703" lon="3.51239">
        <ele>9.8</ele>
        <name><![CDATA[Début]]></name>
      </rtept>
      <rtept lat="45.53327" lon="4.63035">
        <ele>227</ele>
        <name><![CDATA[Fin]]></name>
      </rtept>
    </rte>
  <rte>
    <name><![CDATA[Enregistremen: 20 Avr. 2014 11:54]]></name>
      <rtept lat="43.29703" lon="3.51239">
        <ele>9.8</ele>
        <name><![CDATA[Début]]></name>
      </rtept>
      <rtept lat="43.29697" lon="3.51234">
        <ele>10</ele>
        <name><![CDATA[Fin]]></name>
      </rtept>
    </rte>
  <rte>
    <name><![CDATA[Enregistremen: 25 Avr. 2014 18:53]]></name>
      <rtept lat="43.29985" lon="3.47166">
        <ele>11.5</ele>
        <name><![CDATA[Début]]></name>
      </rtept>
      <rtept lat="43.29703" lon="3.51217">
        <ele>10.3</ele>
        <name><![CDATA[Fin]]></name>
      </rtept>
    </rte>
  <rte>
    <name><![CDATA[Enregistremen: 26 Avr. 2014 09:29]]></name>
      <rtept lat="43.29708" lon="3.51221">
        <ele>10.1</ele>
        <name><![CDATA[Début]]></name>
      </rtept>
      <rtept lat="44.8036" lon="3.42125">
        <ele>1116.3</ele>
        <name><![CDATA[Fin]]></name>
      </rtept>
    </rte>
  <rte>
    <name><![CDATA[Enregistremen: 26 Avr. 2014 13:36]]></name>
      <rtept lat="44.80459" lon="3.42344">
        <ele>1127.9</ele>
        <name><![CDATA[Début]]></name>
      </rtept>
      <rtept lat="45.5332" lon="4.63052">
        <ele>227</ele>
        <name><![CDATA[Fin]]></name>
      </rtept>
    </rte>
  <rte>
    <name><![CDATA[Enregistremen: 27 Avr. 2014 17:19]]></name>
      <rtept lat="45.53325" lon="4.63029">
        <ele>227</ele>
        <name><![CDATA[Début]]></name>
      </rtept>
      <rtept lat="45.53314" lon="4.6305">
        <ele>227</ele>
        <name><![CDATA[Fin]]></name>
      </rtept>
    </rte>
  <rte>
    <name><![CDATA[Enregistremen: 29 Avr. 2014 16:08]]></name>
      <rtept lat="45.70924" lon="4.98048">
        <ele>212</ele>
        <name><![CDATA[Début]]></name>
      </rtept>
      <rtept lat="45.87983" lon="4.59593">
        <ele>320.7</ele>
        <name><![CDATA[Fin]]></name>
      </rtept>
    </rte>
  <rte>
    <name><![CDATA[Enregistremen: 30 Avr. 2014 13:54]]></name>
      <rtept lat="45.87974" lon="4.59628">
        <ele>312.7</ele>
        <name><![CDATA[Début]]></name>
      </rtept>
      <rtept lat="45.70896" lon="4.98136">
        <ele>212</ele>
        <name><![CDATA[Fin]]></name>
      </rtept>
    </rte>
  <rte>
    <name><![CDATA[Enregistremen: 30 Avr. 2014 14:59]]></name>
      <rtept lat="45.70843" lon="4.98123">
        <ele>212</ele>
        <name><![CDATA[Début]]></name>
      </rtept>
      <rtept lat="45.53091" lon="4.62177">
        <ele>232.5</ele>
        <name><![CDATA[Fin]]></name>
      </rtept>
    </rte>
  <rte>
    <name><![CDATA[Lesfauxrdg]]></name>
      <rtept lat="44.80459" lon="3.42344">
        <ele>1127.9</ele>
        <name><![CDATA[Début]]></name>
      </rtept>
      <rtept lat="45.5332" lon="4.63052">
        <ele>227</ele>
        <name><![CDATA[Fin]]></name>
      </rtept>
    </rte>
</gpx>